Latitude: N 50° 09' 49" Longitude: W 05° 11' 53" Elevation: 168m ASL

There are 13 visitors online

Adverts

<- Previous Day | Today | Next Day ->

All Data for 09 March 2018

Time
A - D
Temp
A - D
Dew Point
A - D
Humidity
A - D
Pressure
A - D
Wind
A - D
Wind Dir Gust
A - D
Rain Rate
A - D
Rain Total
00:00 5.1 3.8 91 1002.2 2.2 SE 3.1 0.0 0.0
00:01 5.1 3.8 91 1002.1 2.2 SE 3.1 0.0 0.0
00:03 5.1 3.8 91 1002.2 2.2 SE 3.1 0.0 0.0
00:04 5.1 3.8 91 1002.2 2.2 SE 3.1 0.0 0.0
00:05 5.1 3.8 91 1002.3 2.2 SE 3.1 0.0 0.0
00:07 5.1 3.8 91 1002.1 2.2 SE 3.1 0.0 0.0
00:08 5.1 3.8 91 1002.3 2.2 SE 3.1 0.0 0.0
00:10 5.2 3.9 91 1002.3 1.6 SE 2.2 0.0 0.0
00:11 5.2 3.9 91 1002.2 0.7 SE 2.2 0.0 0.0
00:12 5.2 3.9 91 1002.2 0.7 SE 2.2 0.0 0.0
00:14 5.2 3.9 91 1002.2 0.7 SE 2.2 0.0 0.0
00:15 5.2 3.9 91 1002.2 0.7 SE 2.2 0.0 0.0
00:17 5.2 3.9 91 1002.2 0.0 SE 2.2 0.0 0.0
00:18 5.2 3.9 91 1002.2 0.7 SE 2.2 0.0 0.0
00:20 5.2 3.9 91 1002.2 0.7 SE 0.7 0.0 0.0
00:21 5.2 3.9 91 1002.2 0.7 SE 0.7 0.0 0.0
00:22 5.3 4.0 91 1002.2 0.7 SE 0.7 0.0 0.0
00:24 5.2 3.9 91 1002.2 0.7 SE 0.7 0.0 0.0
00:25 5.2 3.9 91 1002.1 0.7 SE 0.7 0.0 0.0
00:26 5.2 3.9 91 1002.1 0.7 SE 0.7 0.0 0.0
00:27 5.3 4.0 91 1002.0 0.7 SE 0.7 0.0 0.0
00:28 5.2 3.9 91 1002.1 1.6 SE 1.6 0.0 0.0
00:29 5.2 3.9 91 1002.1 1.6 SE 1.6 0.0 0.0
00:51 5.4 4.1 91 1002.2 0.7 SE 0.7 0.0 0.0
00:52 5.5 4.1 91 1002.0 0.0 SE 0.7 0.0 0.0
00:53 5.4 4.1 91 1002.2 0.7 SE 0.7 0.0 0.0
00:54 5.4 4.1 91 1002.2 0.7 SE 0.7 0.0 0.0
00:55 5.4 4.1 91 1002.1 0.7 SE 0.7 0.0 0.0
00:56 5.4 4.1 91 1002.2 0.0 SE 0.7 0.0 0.0
00:57 5.4 4.1 91 1002.2 0.0 SE 0.7 0.0 0.0
00:58 5.4 4.1 91 1002.0 0.0 SE 0.7 0.0 0.0
00:59 5.4 4.1 91 1002.1 0.0 SE 0.7 0.0 0.0
01:00 5.4 4.1 91 1002.0 0.0 SE 0.7 0.0 0.0
01:02 5.4 4.1 91 1002.0 0.0 SE 0.7 0.0 0.0
01:03 5.4 4.1 91 1001.9 0.0 SE 0.7 0.0 0.0
01:04 5.4 4.1 91 1002.1 0.0 SE 0.7 0.0 0.0
01:05 5.4 4.1 91 1002.1 0.0 SE 0.7 0.0 0.0
01:06 5.4 4.1 91 1002.0 0.0 SE 0.7 0.0 0.0
01:07 5.4 4.1 91 1002.1 0.0 SE 0.7 0.0 0.0
01:08 5.3 4.0 91 1002.0 0.7 SE 0.7 0.0 0.0
01:09 5.3 4.0 91 1002.1 0.7 SE 0.7 0.0 0.0
01:10 5.3 4.0 91 1002.1 0.7 SE 0.7 0.0 0.0
01:11 5.4 4.1 91 1002.1 0.7 SE 0.7 0.0 0.0
01:12 5.3 4.0 91 1002.1 0.7 SE 0.7 0.0 0.0
01:13 5.3 4.0 91 1002.1 0.0 SE 0.7 0.0 0.0
01:14 5.3 4.0 91 1002.0 0.0 SE 0.7 0.0 0.0
01:16 5.3 4.0 91 1002.0 0.7 SE 0.7 0.0 0.0
01:17 5.3 4.0 91 1001.9 0.7 SE 0.7 0.0 0.0
01:18 5.3 4.0 91 1002.0 0.7 SE 0.7 0.0 0.0
01:20 5.3 4.0 91 1001.9 0.7 SE 0.7 0.0 0.0
01:21 5.3 4.0 91 1002.0 0.7 SE 0.7 0.0 0.0
01:22 5.3 4.0 91 1002.0 1.6 SE 1.6 0.0 0.0
01:23 5.3 4.0 91 1001.8 1.6 SE 1.6 0.0 0.0
01:24 5.3 4.0 91 1001.8 0.7 SE 1.6 0.0 0.0
01:25 5.3 4.0 91 1001.9 0.7 SE 1.6 0.0 0.0
01:26 5.3 4.0 91 1001.7 1.6 SE 1.6 0.0 0.0
01:27 5.4 4.1 91 1001.7 1.6 SE 1.6 0.0 0.0
01:28 5.3 4.0 91 1001.7 0.7 SE 1.6 0.0 0.0
01:29 5.4 4.1 91 1001.7 1.6 SE 1.6 0.0 0.0
01:32 5.4 4.1 91 1001.6 1.6 SE 1.6 0.0 0.0
01:33 5.4 4.1 91 1001.6 2.2 E 2.2 0.0 0.0
01:36 5.4 4.1 91 1001.7 1.6 E 2.2 0.0 0.0
01:37 5.5 4.1 91 1001.7 1.6 E 2.2 0.0 0.0
01:38 5.5 4.1 91 1001.6 1.6 E 2.2 0.0 0.0
01:39 5.5 4.1 91 1001.6 1.6 E 2.2 0.0 0.0
01:41 5.5 4.1 91 1001.5 2.2 E 2.2 0.0 0.0
01:42 5.5 4.1 91 1001.5 1.6 E 2.2 0.0 0.0
01:43 5.5 4.1 91 1001.5 1.6 E 2.2 0.0 0.0
01:44 5.5 4.1 91 1001.5 2.2 E 2.2 0.0 0.0
01:45 5.5 4.1 91 1001.5 2.2 E 2.2 0.0 0.0
01:46 5.5 4.1 91 1001.5 2.2 E 2.2 0.0 0.0
01:47 5.5 4.1 91 1001.5 3.1 E 3.1 0.0 0.0
01:48 5.5 4.1 91 1001.6 2.2 E 3.1 0.0 0.0
01:49 5.5 4.1 91 1001.5 3.8 E 3.8 0.0 0.0
01:50 5.6 4.2 91 1001.5 2.2 E 3.8 0.0 0.0
01:51 5.6 4.2 91 1001.6 2.2 E 3.8 0.0 0.0
01:52 5.6 4.2 91 1001.4 2.2 E 3.8 0.0 0.0
01:53 5.6 4.2 91 1001.4 1.6 E 3.8 0.0 0.0
01:54 5.6 4.2 91 1001.5 2.2 E 3.8 0.0 0.0
01:55 5.6 4.2 91 1001.4 2.2 E 3.8 0.0 0.0
01:56 5.6 4.2 91 1001.4 1.6 E 3.8 0.0 0.0
01:57 5.6 4.2 91 1001.4 2.2 E 3.8 0.0 0.0
01:58 5.6 4.2 91 1001.3 1.6 NE 3.8 0.0 0.0
01:59 5.5 4.1 91 1001.2 2.2 NE 3.1 0.0 0.0
02:00 5.5 4.1 91 1001.2 2.2 NE 3.1 0.0 0.0
02:02 5.5 4.1 91 1001.2 2.2 NE 3.1 0.0 0.0
02:03 5.5 4.1 91 1001.3 2.2 NE 3.1 0.0 0.0
02:04 5.5 4.1 91 1001.3 2.2 NE 3.1 0.0 0.0
02:05 5.5 4.1 91 1001.2 2.2 NE 3.1 0.0 0.0
02:06 5.5 4.1 91 1001.2 3.1 NE 3.1 0.0 0.0
02:07 5.5 4.1 91 1001.1 3.1 NE 3.1 0.0 0.0
02:08 5.5 4.1 91 1001.2 3.1 NE 3.1 0.0 0.0
02:09 5.5 4.1 91 1001.1 2.2 NE 3.1 0.0 0.0
02:10 5.5 4.1 91 1001.0 3.1 NE 3.1 0.0 0.0
02:11 5.5 4.1 91 1001.0 3.1 NE 3.1 0.0 0.0
02:12 5.5 4.1 91 1001.2 3.8 NE 3.8 0.0 0.0
02:14 5.4 4.1 91 1001.1 3.8 NE 3.8 0.0 0.0
02:15 5.5 4.1 91 1000.9 3.8 NE 3.8 0.0 0.0
02:16 5.5 4.1 91 1001.0 3.8 NE 3.8 0.0 0.0
02:17 5.4 4.1 91 1001.0 3.8 N 3.8 0.0 0.0
02:18 5.4 4.1 91 1001.1 3.1 N 3.8 0.0 0.0
02:19 5.4 4.1 91 1001.0 4.5 NE 4.5 0.0 0.0
02:20 5.4 4.1 91 1001.0 3.1 NE 4.5 0.0 0.0
02:21 5.4 4.1 91 1000.9 2.2 NE 4.5 0.0 0.0
02:22 5.4 4.1 91 1000.8 2.2 NE 4.5 0.0 0.0
02:23 5.4 4.1 91 1001.1 2.2 NE 4.5 0.0 0.0
02:24 5.4 4.1 91 1001.0 3.1 NE 4.5 0.0 0.0
02:25 5.4 4.1 91 1000.9 3.8 NE 4.5 0.0 0.0
02:26 5.4 4.1 91 1000.9 3.1 NE 4.5 0.0 0.0
02:27 5.3 4.0 91 1000.9 3.8 NE 4.5 0.0 0.0
02:28 5.3 4.0 91 1000.9 3.1 NE 4.5 0.0 0.0
02:29 5.3 4.0 91 1000.9 3.1 NE 3.8 0.0 0.0
02:30 5.3 4.0 91 1000.8 3.1 NE 3.8 0.0 0.0
02:31 5.3 4.0 91 1000.8 3.1 NE 3.8 0.0 0.0
02:32 5.3 4.0 91 1000.7 3.8 NE 3.8 0.0 0.0
02:34 5.3 4.0 91 1000.7 3.8 NE 3.8 0.0 0.0
02:35 5.3 4.0 91 1000.7 3.8 NE 3.8 0.0 0.0
02:36 5.2 3.9 91 1000.8 4.5 NE 4.5 0.0 0.0
02:37 5.2 3.9 91 1000.6 3.1 NE 4.5 0.0 0.0
02:38 5.2 3.9 91 1000.8 3.1 NE 4.5 0.0 0.0
02:39 5.2 3.9 91 1000.8 3.8 NE 4.5 0.0 0.0
02:40 5.2 3.9 91 1000.6 3.1 NE 4.5 0.0 0.0
00:30 5.3 4.1 92 1002.0 0.7 SE 1.6 0.0 0.0
00:31 5.3 4.1 92 1002.0 1.6 SE 1.6 0.0 0.0
00:33 5.3 4.1 92 1002.0 0.7 SE 1.6 0.0 0.0
00:34 5.3 4.1 92 1002.1 0.7 SE 1.6 0.0 0.0
00:35 5.3 4.1 92 1002.0 1.6 SE 1.6 0.0 0.0
00:37 5.3 4.1 92 1002.1 0.7 SE 1.6 0.0 0.0
00:38 5.4 4.2 92 1002.1 0.7 SE 1.6 0.0 0.0
00:39 5.3 4.1 92 1002.0 0.7 SE 1.6 0.0 0.0
00:40 5.4 4.2 92 1002.1 0.7 SE 1.6 0.0 0.0
00:41 5.4 4.2 92 1002.2 1.6 SE 1.6 0.0 0.0
00:43 5.4 4.2 92 1002.0 0.7 SE 1.6 0.0 0.0
00:44 5.4 4.2 92 1002.0 0.7 SE 1.6 0.0 0.0
00:45 5.4 4.2 92 1002.2 0.7 SE 1.6 0.0 0.0
00:46 5.4 4.2 92 1002.0 0.0 SE 1.6 0.0 0.0
00:47 5.5 4.3 92 1002.2 0.0 SE 1.6 0.0 0.0
00:48 5.4 4.2 92 1002.0 0.0 SE 1.6 0.0 0.0
00:49 5.5 4.3 92 1002.2 0.7 SE 1.6 0.0 0.0
00:50 5.5 4.3 92 1002.2 0.7 SE 1.6 0.0 0.0
01:30 5.4 4.2 92 1001.7 0.7 SE 1.6 0.0 0.0
01:31 5.4 4.2 92 1001.7 1.6 SE 1.6 0.0 0.0
01:34 5.4 4.2 92 1001.6 1.6 E 2.2 0.0 0.0
01:35 5.4 4.2 92 1001.6 1.6 E 2.2 0.0 0.0
02:41 5.2 4.0 92 1000.7 3.1 NE 4.5 0.0 0.0
02:42 5.2 4.0 92 1000.6 3.8 NE 4.5 0.0 0.0
02:43 5.2 4.0 92 1000.6 3.8 NE 4.5 0.0 0.0
02:44 5.2 4.0 92 1000.7 2.2 NE 4.5 0.0 0.0
02:45 5.2 4.0 92 1000.8 3.1 NE 4.5 0.0 0.0
02:46 5.1 3.9 92 1000.7 2.2 NE 4.5 0.0 0.0
02:47 5.1 3.9 92 1000.7 3.8 NE 4.5 0.0 0.0
02:48 5.1 3.9 92 1000.7 3.1 NE 4.5 0.0 0.0
02:49 5.1 3.9 92 1000.7 3.1 NE 4.5 0.0 0.0
02:50 5.1 3.9 92 1000.7 2.2 NE 4.5 0.0 0.0
02:51 5.1 3.9 92 1000.8 2.2 NE 4.5 0.0 0.0
02:52 5.1 3.9 92 1000.8 3.1 NE 4.5 0.0 0.0
02:53 5.1 3.9 92 1000.7 2.2 NE 4.5 0.0 0.0
02:55 5.1 3.9 92 1000.7 1.6 NE 3.8 0.0 0.0
02:56 5.1 3.9 92 1000.8 2.2 NE 3.8 0.0 0.0
02:57 5.0 3.8 92 1000.7 1.6 NE 3.8 0.0 0.0
02:58 5.0 3.8 92 1000.7 1.6 NE 3.1 0.0 0.0
02:59 5.0 3.8 92 1000.7 2.2 NE 3.1 0.0 0.0
03:00 5.0 3.8 92 1000.7 2.2 NE 3.1 0.0 0.0
03:01 5.0 3.8 92 1000.7 2.2 NE 3.1 0.0 0.0
03:02 5.0 3.8 92 1000.5 2.2 NE 3.1 0.0 0.0
03:03 5.0 3.8 92 1000.5 2.2 NE 2.2 0.0 0.0
03:04 5.0 3.8 92 1000.6 2.2 NE 2.2 0.0 0.0
03:05 5.0 3.8 92 1000.4 2.2 NE 2.2 0.0 0.0
03:06 5.0 4.0 93 1000.5 3.1 NE 3.1 0.0 0.0
03:07 5.0 4.0 93 1000.6 4.5 NE 4.5 0.0 0.0
03:08 5.0 4.0 93 1000.5 3.8 NE 4.5 0.0 0.0
03:09 5.0 4.0 93 1000.6 3.1 NE 4.5 0.0 0.0
03:10 5.0 4.0 93 1000.7 3.1 NE 4.5 0.0 0.0
03:11 5.0 4.0 93 1000.6 3.1 NE 4.5 0.0 0.0
03:12 5.0 4.0 93 1000.6 5.4 NE 5.4 0.0 0.0
03:14 5.0 4.0 93 1000.3 4.5 NE 5.4 0.0 0.0
03:15 5.0 4.0 93 1000.4 3.8 NE 5.4 0.0 0.0
03:16 5.1 4.1 93 1000.4 3.8 NE 5.4 0.0 0.0
03:17 5.1 4.1 93 1000.4 3.8 NE 5.4 0.0 0.0
03:18 5.1 4.1 93 1000.4 3.1 NE 5.4 0.0 0.0
03:19 5.1 4.1 93 1000.2 4.5 NE 5.4 0.0 0.0
03:20 5.1 4.1 93 1000.4 3.1 NE 5.4 0.0 0.0
03:21 5.1 4.1 93 1000.4 5.4 NE 5.4 0.0 0.0
03:22 5.1 4.1 93 1000.3 3.8 NE 5.4 0.0 0.0
03:23 5.1 4.1 93 1000.3 3.8 NE 5.4 0.0 0.0
03:24 5.1 4.1 93 1000.3 4.5 NE 5.4 0.0 0.0
03:25 5.1 4.1 93 1000.3 3.1 NE 5.4 0.0 0.0
03:26 5.1 4.1 93 1000.3 3.1 NE 5.4 0.0 0.0
03:27 5.1 4.1 93 1000.3 5.4 NE 5.4 0.0 0.0
03:29 5.1 4.1 93 1000.3 3.8 NE 5.4 0.0 0.0
03:30 5.1 4.1 93 1000.2 2.2 NE 5.4 0.0 0.0
03:31 5.1 4.1 93 1000.2 3.1 NE 5.4 0.0 0.0
03:32 5.1 4.1 93 1000.3 2.2 NE 5.4 0.0 0.0
03:33 5.1 4.1 93 1000.2 3.1 NE 5.4 0.0 0.0
03:34 5.1 4.1 93 1000.2 3.1 NE 5.4 0.0 0.0
03:38 5.1 4.1 93 1000.3 3.1 NE 5.4 0.0 0.0
03:35 5.0 4.1 94 1000.1 3.8 NE 5.4 0.0 0.0
03:36 5.0 4.1 94 1000.1 1.6 NE 5.4 0.0 0.0
03:37 5.0 4.1 94 1000.2 3.8 NE 5.4 0.0 0.0
03:39 5.0 4.1 94 1000.4 2.2 NE 5.4 0.0 0.0
03:40 5.0 4.1 94 1000.3 3.8 NE 5.4 0.0 0.0
03:41 5.0 4.1 94 1000.3 3.1 NE 5.4 0.0 0.0
03:42 5.1 4.2 94 1000.2 4.5 NE 5.4 0.0 0.0
03:43 5.1 4.2 94 1000.3 3.1 NE 5.4 0.0 0.0
03:44 5.1 4.2 94 1000.2 3.1 NE 5.4 0.0 0.0
03:45 5.1 4.2 94 1000.1 2.2 NE 5.4 0.0 0.0
03:46 5.1 4.2 94 1000.1 3.1 NE 4.5 0.0 0.0
03:48 5.1 4.2 94 1000.0 2.2 NE 4.5 0.0 0.0
03:49 5.1 4.2 94 1000.0 2.2 NE 4.5 0.0 0.0
03:50 5.1 4.2 94 1000.1 3.1 NE 4.5 0.0 0.0
03:51 5.1 4.2 94 1000.0 3.1 NE 4.5 0.0 0.0
03:52 5.1 4.2 94 999.9 5.4 NE 5.4 0.0 0.0
03:53 5.1 4.2 94 999.9 5.4 NE 5.4 0.0 0.0
03:54 5.1 4.2 94 1000.1 3.1 NE 5.4 0.0 0.0
03:55 5.1 4.2 94 1000.0 3.8 NE 5.4 0.0 0.0
03:56 5.2 4.3 94 999.9 3.8 NE 5.4 0.0 0.0
03:57 5.2 4.3 94 999.8 4.5 NE 5.4 0.0 0.0
03:58 5.2 4.3 94 999.9 6.9 N 6.9 0.0 0.0
03:59 5.2 4.3 94 1000.0 3.1 N 6.9 0.0 0.0
04:00 5.2 4.3 94 999.9 3.1 N 6.9 0.0 0.0
04:01 5.2 4.3 94 999.9 3.1 N 6.9 0.0 0.0
04:02 5.2 4.3 94 1000.0 3.1 N 6.9 0.0 0.0
04:03 5.2 4.3 94 999.9 3.1 N 6.9 0.0 0.0
04:04 5.2 4.3 94 999.9 3.1 N 6.9 0.0 0.0
04:05 5.2 4.3 94 999.9 3.1 N 6.9 0.0 0.0
04:06 5.3 4.4 94 999.8 5.4 NE 6.9 0.0 0.0
04:08 5.3 4.4 94 999.9 3.1 N 6.9 0.0 0.0
04:09 5.3 4.4 94 999.9 3.1 NE 5.4 0.0 0.0
04:10 5.3 4.4 94 999.9 3.8 NE 5.4 0.0 0.0
04:11 5.3 4.4 94 1000.1 4.5 NE 5.4 0.0 0.0
04:14 5.3 4.4 94 999.9 6.0 NE 6.0 0.0 0.0
04:15 5.3 4.4 94 999.9 3.1 NE 6.0 0.0 0.0
04:16 5.4 4.5 94 999.8 3.8 NE 6.0 0.0 0.0
04:13 5.3 4.6 95 1000.0 2.2 NE 5.4 0.0 0.0
04:17 5.4 4.7 95 999.9 3.8 NE 6.0 0.0 0.0
04:18 5.3 4.6 95 999.9 4.5 NE 6.0 0.0 0.0
04:19 5.4 4.7 95 999.8 5.4 NE 6.0 0.0 0.0
04:20 5.4 4.7 95 1000.0 3.8 NE 6.0 0.0 0.0
04:21 5.4 4.7 95 999.8 3.8 NE 6.0 0.0 0.0
04:22 5.4 4.7 95 999.9 5.4 NE 6.0 0.0 0.0
04:23 5.4 4.7 95 999.8 3.8 NE 6.0 0.0 0.0
04:24 5.4 4.7 95 999.8 5.4 NE 5.4 0.0 0.0
04:25 5.4 4.7 95 999.9 4.5 NE 5.4 0.0 0.0
04:26 5.4 4.7 95 999.9 3.1 NE 5.4 0.0 0.0
04:27 5.4 4.7 95 999.9 3.1 N 5.4 0.0 0.0
04:28 5.4 4.7 95 999.9 3.1 N 5.4 0.0 0.0
04:29 5.4 4.7 95 999.7 2.2 N 5.4 0.0 0.0
04:30 5.4 4.7 95 999.8 2.2 N 5.4 0.0 0.0
04:31 5.4 4.7 95 999.7 3.1 N 5.4 0.0 0.0
04:33 5.4 4.7 95 999.7 3.8 NE 5.4 0.0 0.0
04:34 5.5 4.8 95 999.7 4.5 NE 5.4 0.0 0.0
04:35 5.5 4.8 95 999.7 5.4 NE 5.4 0.0 0.0
04:36 5.5 4.8 95 999.6 3.1 NE 5.4 0.0 0.0
04:37 5.5 4.8 95 999.7 3.1 NE 5.4 0.0 0.0
04:38 5.5 4.8 95 999.6 3.8 NE 5.4 0.0 0.0
04:39 5.5 4.8 95 999.6 2.2 NE 5.4 0.0 0.0
04:40 5.5 4.8 95 999.6 2.2 NE 5.4 0.0 0.0
04:41 5.5 4.8 95 999.6 3.8 NE 5.4 0.0 0.0
04:42 5.5 4.8 95 999.5 3.8 NE 5.4 0.0 0.0
04:43 5.5 4.8 95 999.7 3.8 NE 5.4 0.0 0.0
04:44 5.5 4.8 95 999.5 5.4 NNE 5.4 0.0 0.0
04:45 5.5 4.8 95 999.6 3.8 NE 5.4 0.0 0.0
04:46 5.5 4.8 95 999.6 5.4 NE 5.4 0.0 0.0
04:47 5.5 4.8 95 999.6 6.0 N 6.0 0.0 0.0
04:48 5.5 4.8 95 999.7 4.5 N 6.0 0.0 0.0
04:49 5.5 4.8 95 999.5 6.0 NE 6.0 0.0 0.0
04:50 5.5 4.8 95 999.3 4.5 N 7.6 0.0 0.0
04:51 5.6 4.9 95 999.4 3.1 N 7.6 0.0 0.0
04:53 5.6 4.9 95 999.5 5.4 NE 7.6 0.0 0.0
04:54 5.6 4.9 95 999.4 3.1 NE 7.6 0.0 0.0
04:55 5.6 4.9 95 999.4 3.8 NE 7.6 0.0 0.0
04:56 5.6 4.9 95 999.3 3.8 N 7.6 0.0 0.0
04:59 5.6 4.9 95 999.5 4.5 NE 7.6 0.0 0.0
05:00 5.6 4.9 95 999.5 6.0 NE 6.0 0.0 0.0
05:01 5.6 4.9 95 999.5 6.0 NE 6.0 0.0 0.0
05:02 5.6 4.9 95 999.4 6.0 NE 6.0 0.0 0.0
05:03 5.6 4.9 95 999.5 6.0 NE 6.0 0.0 0.0
05:05 5.6 4.9 95 999.3 6.0 NE 6.0 0.0 0.0
07:55 6.5 5.8 95 997.7 9.8 N 12.1 0.0 0.0
04:57 5.6 5.0 96 999.4 5.4 NE 7.6 0.0 0.0
04:58 5.6 5.0 96 999.4 4.5 N 7.6 0.0 0.0
05:06 5.8 5.2 96 999.5 3.1 NE 6.0 0.0 0.0
05:07 5.8 5.2 96 999.4 6.0 N 6.0 0.0 0.0
05:09 5.8 5.2 96 999.5 3.8 N 9.2 0.0 0.0
05:10 5.8 5.2 96 999.5 3.8 NE 9.2 0.0 0.0
05:11 5.8 5.2 96 999.6 6.9 N 9.2 0.0 0.0
05:12 5.8 5.2 96 999.5 9.2 N 9.2 0.0 0.0
05:13 5.9 5.3 96 999.3 6.9 N 9.2 0.0 0.0
05:14 5.9 5.3 96 999.3 5.4 NE 9.2 0.0 0.0
05:15 5.9 5.3 96 999.4 5.4 N 9.2 0.0 0.0
05:16 5.9 5.3 96 999.3 6.9 NE 9.2 0.0 0.0
05:17 5.9 5.3 96 999.4 5.4 NE 9.2 0.0 0.0
05:18 5.9 5.3 96 999.3 6.0 N 9.2 0.0 0.0
05:19 6.0 5.4 96 999.3 4.5 N 9.2 0.0 0.0
05:20 6.0 5.4 96 999.3 3.1 N 9.2 0.0 0.0
05:21 6.0 5.4 96 999.2 4.5 NE 9.2 0.0 0.0
05:22 6.0 5.4 96 999.2 6.0 N 6.9 0.0 0.0
05:23 5.9 5.3 96 999.3 4.5 N 6.9 0.0 0.0
05:25 6.1 5.5 96 999.2 3.8 NE 6.9 0.0 0.0
05:26 6.1 5.5 96 999.3 7.6 NW 7.6 0.0 0.0
05:27 6.1 5.5 96 999.2 5.4 NE 7.6 0.0 0.0
05:28 6.1 5.5 96 999.4 6.9 NE 7.6 0.0 0.0
05:29 6.1 5.5 96 999.3 9.8 N 9.8 0.0 0.0
05:30 6.1 5.5 96 999.5 7.6 N 9.8 0.0 0.0
05:31 6.1 5.5 96 999.3 6.0 N 9.8 0.0 0.0
05:32 6.1 5.5 96 999.2 4.5 NE 9.8 0.0 0.0
05:33 6.2 5.6 96 999.4 6.9 NE 9.8 0.0 0.0
05:35 6.2 5.6 96 999.3 6.9 NE 9.8 0.0 0.0
05:36 6.2 5.6 96 999.3 3.8 N 9.8 0.0 0.0
05:37 6.2 5.6 96 999.2 4.5 NE 9.8 0.0 0.0
05:38 6.2 5.6 96 999.3 3.8 N 9.8 0.0 0.0
05:39 6.2 5.6 96 999.3 4.5 N 9.8 0.0 0.0
05:40 6.3 5.7 96 999.3 6.9 NE 7.6 0.0 0.0
05:41 6.3 5.7 96 999.2 6.0 NE 6.9 0.0 0.0
05:42 6.3 5.7 96 999.1 3.1 NE 6.9 0.0 0.0
05:43 6.3 5.7 96 999.2 4.5 N 6.9 0.0 0.0
05:44 6.3 5.7 96 999.0 6.9 N 7.6 0.0 0.0
05:45 6.3 5.7 96 999.1 6.0 NE 7.6 0.0 0.0
05:46 6.3 5.7 96 999.0 6.9 N 7.6 0.0 0.0
05:47 6.4 5.8 96 999.1 3.8 N 7.6 0.0 0.0
05:48 6.4 5.8 96 999.0 9.2 N 9.2 0.0 0.0
05:49 6.3 5.7 96 999.1 7.6 NE 9.2 0.0 0.0
05:50 6.4 5.8 96 999.2 6.0 NE 9.2 0.0 0.0
05:51 6.4 5.8 96 999.1 7.6 NE 9.2 0.0 0.0
05:53 6.4 5.8 96 999.2 7.6 NE 9.2 0.0 0.0
05:54 6.4 5.8 96 999.2 5.4 NE 9.2 0.0 0.0
05:55 6.4 5.8 96 999.1 5.4 N 9.2 0.0 0.0
05:56 6.4 5.8 96 999.2 5.4 N 9.2 0.0 0.0
05:57 6.4 5.8 96 999.0 4.5 N 9.2 0.0 0.0
05:58 6.4 5.8 96 999.2 8.3 NE 9.2 0.0 0.0
05:59 6.4 5.8 96 999.1 5.4 NE 8.3 0.0 0.0
06:00 6.4 5.8 96 999.1 5.4 NNW 8.3 0.0 0.0
06:01 6.4 5.8 96 999.1 5.4 NNW 8.3 0.0 0.0
06:02 6.4 5.8 96 999.0 5.4 NNW 8.3 0.0 0.0
06:03 6.4 5.8 96 999.0 5.4 NNW 8.3 0.0 0.0
06:04 6.4 5.8 96 999.0 5.4 NNW 8.3 0.0 0.0
06:05 6.5 5.9 96 999.0 6.9 N 8.3 0.0 0.0
06:06 6.4 5.8 96 999.0 5.4 N 8.3 0.0 0.0
06:07 6.5 5.9 96 999.0 9.2 NE 9.2 0.0 0.0
06:09 6.5 5.9 96 999.1 4.5 NE 9.2 0.0 0.0
06:10 6.5 5.9 96 998.9 8.3 N 9.2 0.0 0.0
06:12 6.5 5.9 96 998.9 4.5 NE 9.2 0.0 0.0
06:14 6.5 5.9 96 998.8 6.0 NE 9.2 0.0 0.0
06:15 6.5 5.9 96 998.7 8.3 N 9.2 0.0 0.0
06:16 6.5 5.9 96 998.7 5.4 NE 9.2 0.0 0.0
06:17 6.5 5.9 96 998.6 8.3 NE 9.2 0.0 0.0
06:18 6.5 5.9 96 998.7 6.9 NE 8.3 0.0 0.0
06:19 6.5 5.9 96 998.6 6.9 NE 8.3 0.0 0.0
06:20 6.5 5.9 96 998.6 9.8 SW 9.8 0.0 0.0
06:21 6.5 5.9 96 998.7 9.2 N 9.8 0.0 0.0
06:22 6.5 5.9 96 998.7 7.6 NE 9.8 0.0 0.0
06:23 6.5 5.9 96 998.7 14.5 NE 14.5 0.0 0.0
06:24 6.5 5.9 96 998.5 13.0 NE 14.5 0.0 0.0
06:25 6.5 5.9 96 998.7 9.2 N 14.5 0.0 0.0
06:26 6.5 5.9 96 998.7 9.2 NW 14.5 0.0 0.0
06:27 6.5 5.9 96 998.7 9.8 NE 14.5 0.0 0.0
06:28 6.6 6.0 96 998.6 9.2 N 14.5 0.0 0.0
06:29 6.6 6.0 96 998.7 8.3 NE 14.5 0.0 0.0
06:30 6.6 6.0 96 998.9 7.6 NE 14.5 0.0 0.0
06:31 6.6 6.0 96 998.6 8.3 N 14.5 0.0 0.0
06:32 6.6 6.0 96 998.7 5.4 NE 14.5 0.0 0.0
06:33 6.6 6.0 96 998.8 10.7 NE 13.0 0.0 0.0
06:34 6.5 5.9 96 998.7 8.3 NE 13.0 0.0 0.0
06:35 6.6 6.0 96 998.7 5.4 N 10.7 0.0 0.0
06:36 6.6 6.0 96 998.7 5.4 NE 10.7 0.0 0.0
06:37 6.6 6.0 96 998.7 9.8 NE 10.7 0.0 0.0
06:38 6.6 6.0 96 998.6 5.4 NE 10.7 0.0 0.0
06:39 6.6 6.0 96 998.7 5.4 NE 10.7 0.0 0.0
06:40 6.6 6.0 96 998.6 9.2 N 10.7 0.0 0.0
06:41 6.6 6.0 96 998.5 8.3 NE 10.7 0.0 0.0
06:42 6.6 6.0 96 998.5 7.6 NE 10.7 0.0 0.0
06:43 6.6 6.0 96 998.5 6.0 N 10.7 0.0 0.0
06:44 6.6 6.0 96 998.4 9.8 NE 9.8 0.0 0.0
06:45 6.6 6.0 96 998.3 9.2 NE 9.8 0.0 0.0
06:46 6.6 6.0 96 998.3 7.6 NE 9.8 0.0 0.0
06:47 6.6 6.0 96 998.4 10.7 SE 10.7 0.0 0.0
06:48 6.6 6.0 96 998.3 11.4 NW 11.4 0.0 0.0
06:49 6.6 6.0 96 998.3 7.6 N 11.4 0.0 0.0
06:50 6.6 6.0 96 998.3 10.7 N 11.4 0.0 0.0
06:51 6.6 6.0 96 998.2 9.2 NE 11.4 0.0 0.0
06:52 6.6 6.0 96 998.3 7.6 N 11.4 0.0 0.0
06:53 6.6 6.0 96 998.3 10.7 N 11.4 0.0 0.0
06:54 6.6 6.0 96 998.1 5.4 NE 11.4 0.0 0.0
06:55 6.6 6.0 96 998.1 9.8 NE 11.4 0.0 0.0
06:56 6.6 6.0 96 998.2 6.9 NE 11.4 0.0 0.0
06:57 6.6 6.0 96 998.2 7.6 NE 11.4 0.0 0.0
06:58 6.6 6.0 96 998.1 10.7 NE 10.7 0.0 0.0
06:59 6.6 6.0 96 998.0 7.6 NE 10.7 0.0 0.0
07:00 6.6 6.0 96 998.2 6.0 NE 10.7 0.0 0.0
07:01 6.6 6.0 96 998.0 6.0 NE 10.7 0.0 0.0
07:02 6.6 6.0 96 998.1 6.0 NE 10.7 0.0 0.0
07:03 6.6 6.0 96 998.1 6.0 NE 10.7 0.0 0.0
07:04 6.6 6.0 96 998.1 6.0 NE 10.7 0.0 0.0
07:05 6.6 6.0 96 998.1 6.0 NE 10.7 0.0 0.0
07:06 6.7 6.1 96 998.3 8.3 N 10.7 0.0 0.0
07:07 6.7 6.1 96 998.2 8.3 NE 10.7 0.0 0.0
07:08 6.7 6.1 96 998.0 7.6 NE 8.3 0.0 0.0
07:09 6.7 6.1 96 998.2 6.9 N 8.3 0.0 0.0
07:10 6.7 6.1 96 998.0 6.0 N 8.3 0.0 0.0
07:11 6.7 6.1 96 998.2 6.0 NE 8.3 0.0 0.0
07:12 6.7 6.1 96 998.2 8.3 NE 8.3 0.0 0.0
07:13 6.7 6.1 96 998.2 8.3 N 8.3 0.0 0.0
07:14 6.7 6.1 96 998.1 11.4 W 11.4 0.0 0.0
07:15 6.7 6.1 96 998.1 6.9 N 11.4 0.0 0.0
07:16 6.7 6.1 96 998.1 6.0 N 11.4 0.0 0.0
07:17 6.7 6.1 96 997.9 6.9 NE 11.4 0.0 0.0
07:19 6.7 6.1 96 997.9 6.9 NE 11.4 0.0 0.0
07:20 6.8 6.2 96 998.0 7.6 NE 11.4 0.0 0.0
07:21 6.8 6.2 96 997.8 6.9 NE 11.4 0.0 0.0
07:23 6.7 6.1 96 997.9 8.3 NE 11.4 0.0 0.0
07:24 6.7 6.1 96 997.9 13.0 NW 13.0 0.0 0.0
07:25 6.7 6.1 96 997.9 8.3 N 13.0 0.0 0.0
07:26 6.7 6.1 96 997.8 8.3 NE 13.0 0.0 0.0
07:27 6.8 6.2 96 997.8 6.0 N 13.0 0.0 0.0
07:29 6.7 6.1 96 997.7 8.3 NE 13.0 0.0 0.0
07:30 6.8 6.2 96 997.7 6.0 N 13.0 0.0 0.0
07:31 6.7 6.1 96 997.6 4.5 N 13.0 0.0 0.0
07:32 6.7 6.1 96 997.6 11.4 N 13.0 0.0 0.0
07:34 6.7 6.1 96 997.7 7.6 N 13.0 0.0 0.0
07:35 6.7 6.1 96 997.7 8.3 SE 11.4 0.0 0.0
07:36 6.7 6.1 96 997.8 5.4 N 11.4 0.0 0.0
07:37 6.8 6.2 96 997.7 5.4 N 11.4 0.0 0.0
07:38 6.7 6.1 96 997.7 7.6 N 11.4 0.0 0.0
07:39 6.7 6.1 96 997.6 7.6 N 11.4 0.0 0.0
07:40 6.7 6.1 96 997.6 7.6 NE 11.4 0.0 0.0
07:41 6.7 6.1 96 997.6 8.3 NW 11.4 0.0 0.0
07:43 6.7 6.1 96 997.7 6.9 NE 8.3 0.0 0.0
07:44 6.7 6.1 96 997.7 4.5 NW 11.4 0.0 0.0
07:45 6.7 6.1 96 997.7 8.3 NE 11.4 0.0 0.0
07:46 6.7 6.1 96 997.7 9.8 N 11.4 0.0 0.0
07:47 6.7 6.1 96 997.9 8.3 N 11.4 0.0 0.0
07:48 6.7 6.1 96 997.7 7.6 N 11.4 0.0 0.0
07:49 6.7 6.1 96 997.8 9.2 N 11.4 0.0 0.0
07:50 6.7 6.1 96 998.0 4.5 NE 11.4 0.0 0.0
07:51 6.7 6.1 96 997.8 6.9 N 11.4 0.0 0.0
07:52 6.7 6.1 96 997.7 5.4 N 11.4 0.0 0.0
07:53 6.7 6.1 96 997.7 5.4 N 11.4 0.0 0.0
07:54 6.5 5.9 96 997.7 12.1 N 12.1 0.0 0.0
07:56 6.6 6.0 96 997.7 6.0 N 12.1 0.0 0.0
07:57 6.6 6.0 96 997.7 8.3 NE 12.1 0.0 0.0
07:58 6.6 6.0 96 997.8 10.7 NE 13.0 0.0 0.0
07:59 6.6 6.0 96 997.6 10.7 NE 13.0 0.0 0.0
08:00 6.6 6.0 96 997.6 10.7 NE 13.0 0.0 0.0
08:01 6.6 6.0 96 997.5 10.7 NE 13.0 0.0 0.0
08:02 6.6 6.0 96 997.5 10.7 NE 13.0 0.0 0.0
08:03 6.6 6.0 96 997.5 10.7 NE 13.0 0.0 0.0
08:05 6.6 6.0 96 997.4 10.7 NE 13.0 0.0 0.0
08:07 6.6 6.0 96 997.5 9.2 N 13.0 0.0 0.0
08:08 6.6 6.0 96 997.6 12.1 NE 13.0 0.0 0.0
08:09 6.6 6.0 96 997.4 6.0 N 12.1 0.0 0.0
08:10 6.6 6.0 96 997.6 7.6 N 12.1 0.0 0.0
08:11 6.6 6.0 96 997.6 9.2 N 12.1 0.0 0.0
08:13 6.6 6.0 96 997.6 7.6 N 12.1 0.0 0.0
08:15 6.6 6.0 96 997.5 5.4 NE 12.1 0.0 0.0
08:16 6.5 5.9 96 997.4 6.9 N 12.1 0.0 0.0
08:17 6.6 6.0 96 997.5 10.7 NE 12.1 0.0 0.0
08:18 6.6 6.0 96 997.5 7.6 NE 11.4 0.0 0.0
08:20 6.6 6.0 96 997.4 15.9 N 16.8 0.0 0.0
08:19 6.6 6.2 97 997.3 16.8 N 16.8 0.0 0.0
08:21 6.6 6.2 97 997.3 9.2 N 16.8 0.0 0.0
08:22 6.6 6.2 97 997.5 9.2 N 16.8 0.0 0.0
08:23 6.6 6.2 97 997.4 13.0 NE 16.8 0.0 0.0
08:24 6.6 6.2 97 997.3 6.0 NE 16.8 0.0 0.0
08:25 6.6 6.2 97 997.3 10.7 NE 16.8 0.0 0.0
08:26 6.6 6.2 97 997.3 9.2 N 16.8 0.0 0.0
08:27 6.6 6.2 97 997.4 6.0 N 16.8 0.0 0.0
08:28 6.6 6.2 97 997.3 7.6 NE 16.8 0.8 0.1
08:29 6.6 6.2 97 997.3 6.0 NE 15.9 0.8 0.1
08:30 6.6 6.2 97 997.3 6.9 N 15.9 0.8 0.1
08:31 6.6 6.2 97 997.3 6.0 N 13.0 0.8 0.1
08:32 6.6 6.2 97 997.4 7.6 NE 13.0 0.8 0.1
08:33 6.7 6.3 97 997.3 15.2 N 15.2 0.8 0.1
08:34 6.7 6.3 97 997.3 11.4 NE 15.2 0.8 0.1
08:35 6.7 6.3 97 997.3 9.2 N 15.2 0.8 0.1
08:36 6.7 6.3 97 997.2 6.9 NE 15.2 0.8 0.1
08:37 6.7 6.3 97 997.2 8.3 N 15.2 0.8 0.1
08:39 6.7 6.3 97 997.0 8.3 NE 15.2 0.0 0.1
08:40 6.7 6.4 98 996.9 6.0 N 15.2 0.0 0.1
08:41 6.7 6.4 98 997.0 7.6 NE 15.2 0.0 0.2
08:42 6.7 6.4 98 997.1 9.2 NE 15.2 0.8 0.2
08:43 6.7 6.4 98 997.1 13.0 NE 13.0 0.8 0.2
08:44 6.8 6.5 98 997.2 6.9 N 13.0 0.8 0.2
08:45 6.8 6.5 98 997.2 9.8 NE 13.0 0.8 0.2
08:46 6.8 6.5 98 997.1 7.6 N 13.0 0.8 0.3
08:47 6.8 6.5 98 997.0 11.4 NE 13.0 0.8 0.3
08:49 6.9 6.6 98 997.0 5.4 NE 13.0 0.8 0.3
08:50 6.9 6.6 98 997.0 8.3 N 13.0 0.8 0.3
08:51 6.9 6.6 98 997.0 13.0 NE 13.0 0.8 0.3
08:52 6.9 6.6 98 997.0 8.3 NE 13.0 0.0 0.3
08:53 6.9 6.6 98 996.9 11.4 N 13.0 0.0 0.3
08:54 6.9 6.6 98 996.8 12.1 NE 13.0 0.8 0.3
08:55 6.9 6.6 98 996.8 8.3 N 13.0 0.8 0.3
08:56 7.0 6.7 98 996.7 7.6 NE 13.0 0.8 0.3
08:57 7.0 6.7 98 996.8 6.9 SE 13.0 0.8 0.3
08:58 7.0 6.9 99 996.8 5.4 N 13.0 0.8 0.3
08:59 7.1 7.0 99 996.9 6.0 N 13.0 0.0 0.3
09:00 7.1 7.0 99 996.7 8.3 NE 13.0 0.8 0.4
09:01 7.1 7.0 99 996.7 8.3 NE 12.1 0.8 0.4
09:02 7.1 7.0 99 996.7 8.3 NE 12.1 0.8 0.4
09:03 7.1 7.0 99 996.7 8.3 NE 12.1 0.8 0.4
09:04 7.1 7.0 99 996.7 8.3 NE 12.1 0.8 0.4
09:05 7.1 7.0 99 996.7 8.3 NE 8.3 0.0 0.4
09:06 7.3 7.2 99 996.8 8.3 N 8.3 0.0 0.4
09:07 7.3 7.2 99 996.7 14.5 N 14.5 0.0 0.4
09:08 7.3 7.2 99 996.8 7.6 N 14.5 0.0 0.4
09:09 7.4 7.3 99 996.6 10.7 NE 14.5 0.0 0.4
09:10 7.4 7.3 99 996.8 9.2 N 14.5 0.8 0.4
09:11 7.4 7.3 99 996.7 9.8 N 14.5 0.8 0.4
09:12 7.4 7.3 99 996.8 9.8 N 14.5 0.8 0.4
09:13 7.4 7.3 99 996.6 14.5 E 14.5 0.8 0.4
09:14 7.5 7.4 99 996.6 6.0 N 14.5 0.8 0.4
09:15 7.5 7.4 99 996.6 9.2 NE 14.5 0.0 0.4
09:16 7.5 7.4 99 996.6 8.3 NW 14.5 0.0 0.4
09:17 7.5 7.4 99 996.6 5.4 N 14.5 0.0 0.5
09:18 7.5 7.4 99 996.5 6.9 NW 14.5 0.8 0.5
09:19 7.6 7.5 99 996.6 5.4 N 14.5 0.8 0.5
09:20 7.6 7.5 99 996.5 4.5 N 14.5 0.8 0.5
09:21 7.6 7.5 99 996.6 6.0 NE 14.5 0.8 0.5
09:23 7.6 7.5 99 996.6 8.3 N 14.5 0.0 0.5
09:24 7.6 7.5 99 996.6 6.0 NNE 9.2 0.0 0.5
09:25 7.7 7.6 99 996.5 4.5 NE 9.2 0.0 0.5
09:26 7.7 7.6 99 996.5 6.0 N 8.3 0.0 0.5
09:27 7.7 7.6 99 996.5 4.5 N 8.3 0.0 0.5
09:28 7.7 7.6 99 996.6 6.9 E 8.3 0.0 0.6
09:29 7.7 7.6 99 996.4 6.0 NE 8.3 0.8 0.6
09:30 7.7 7.6 99 996.4 6.9 N 8.3 0.8 0.6
09:31 7.8 7.7 99 996.4 4.5 N 8.3 0.8 0.6
09:33 7.8 7.7 99 996.3 10.7 N 13.0 0.8 0.6
09:34 7.8 7.7 99 996.3 6.9 N 13.0 0.0 0.6
09:35 7.8 7.7 99 996.3 7.6 NE 13.0 0.8 0.6
09:36 7.8 7.7 99 996.4 9.8 S 13.0 0.8 0.6
09:37 7.8 7.7 99 996.3 7.6 N 13.0 0.8 0.6
09:38 7.8 7.7 99 996.4 9.8 S 13.0 0.8 0.6
09:39 7.9 7.8 99 996.4 5.4 N 13.0 0.8 0.6
09:40 7.9 7.8 99 996.2 6.9 NE 13.0 0.0 0.6
09:41 7.9 7.8 99 996.2 5.4 NW 13.0 0.0 0.6
09:42 7.9 7.8 99 996.2 6.0 N 13.0 0.0 0.6
09:43 7.9 7.8 99 996.2 5.4 NE 10.7 0.8 0.7
09:44 7.9 7.8 99 996.3 6.0 N 12.1 0.8 0.7
09:45 7.9 7.8 99 996.2 9.2 SE 12.1 0.8 0.7
09:46 8.0 7.9 99 996.2 8.3 N 12.1 1.5 0.8
09:47 7.9 7.8 99 996.2 6.9 NW 12.1 1.5 0.8
09:48 8.0 7.9 99 996.2 5.4 NE 12.1 0.8 0.8
09:49 8.0 7.9 99 996.2 8.3 NE 12.1 0.8 0.8
09:50 8.0 7.9 99 996.2 7.6 N 12.1 0.8 0.8
09:51 8.0 7.9 99 996.2 9.8 N 12.1 0.0 0.8
09:52 8.0 7.9 99 996.3 5.4 N 12.1 0.8 0.8
09:53 8.0 7.9 99 996.2 8.3 S 12.1 0.8 0.8
09:54 8.0 7.9 99 996.2 4.5 N 9.8 0.8 0.8
09:55 8.0 7.9 99 996.2 5.4 W 9.8 0.8 0.8
09:56 8.0 7.9 99 996.2 8.3 N 9.8 0.8 0.9
09:57 8.0 7.9 99 996.2 5.4 NW 9.8 0.8 0.9
09:58 8.0 7.9 99 996.1 5.4 N 9.8 0.8 0.9
09:59 8.1 8.0 99 996.2 5.4 N 9.8 0.8 0.9
10:00 8.1 8.0 99 996.2 5.4 N 9.8 1.5 0.9
10:01 8.1 8.0 99 996.2 5.4 N 9.8 1.5 0.9
10:02 8.1 8.0 99 996.2 5.4 N 8.3 0.8 0.9
10:03 8.1 8.0 99 996.2 5.4 N 8.3 0.8 0.9
10:04 8.1 8.0 99 996.2 5.4 N 8.3 0.8 0.9
10:05 8.1 8.0 99 996.2 4.5 N 8.3 0.0 1.0
10:06 8.1 8.0 99 996.2 5.4 N 6.9 0.8 1.0
10:07 7.9 7.8 99 996.2 7.6 N 7.6 0.8 1.0
10:08 8.1 8.0 99 996.1 6.9 NE 7.6 0.8 1.1
10:10 8.1 8.0 99 996.2 3.8 NE 7.6 1.5 1.1
10:11 8.1 8.0 99 996.1 6.0 N 8.3 0.8 1.1
10:13 8.1 8.0 99 996.1 10.7 N 10.7 1.5 1.1
10:14 8.1 8.0 99 996.1 9.2 SE 10.7 0.8 1.1
10:16 8.1 8.0 99 996.1 7.6 NW 10.7 1.5 1.2
10:17 8.1 8.0 99 996.0 7.6 NE 10.7 0.8 1.2
10:18 8.1 8.0 99 996.0 9.2 NE 10.7 0.8 1.2
10:19 8.1 8.0 99 996.0 6.9 N 10.7 1.5 1.3
10:20 8.1 8.0 99 996.0 5.4 SE 10.7 1.5 1.3
10:21 8.1 8.0 99 996.1 6.0 N 10.7 0.8 1.3
10:22 8.1 8.0 99 996.1 7.6 N 10.7 1.5 1.3
10:23 8.1 8.0 99 995.9 6.9 NE 10.7 1.5 1.3
10:24 8.1 8.0 99 996.0 6.9 N 9.2 0.8 1.4
10:25 8.1 8.0 99 995.8 8.3 NE 9.2 1.5 1.4
10:26 8.1 8.0 99 996.1 6.9 N 9.2 1.5 1.4
10:27 8.1 8.0 99 995.9 5.4 N 9.2 0.8 1.4
10:28 8.1 8.0 99 996.0 8.3 N 13.6 1.5 1.4
10:29 8.1 8.0 99 995.9 6.0 N 13.6 1.5 1.4
10:30 8.1 8.0 99 995.9 6.0 NW 13.6 0.8 1.4
10:31 8.1 8.0 99 996.1 5.4 NE 13.6 0.8 1.4
10:32 8.1 8.0 99 995.9 6.0 NE 13.6 1.5 1.5
10:33 8.1 8.0 99 996.1 7.6 N 13.6 0.8 1.5
10:34 8.1 8.0 99 995.8 6.0 N 13.6 0.8 1.5
10:35 8.1 8.0 99 995.8 12.1 NE 13.6 0.8 1.5
10:36 8.1 8.0 99 996.0 6.9 NE 13.6 0.8 1.5
10:37 8.1 8.0 99 995.9 6.0 NW 13.6 0.0 1.6
10:38 8.1 8.0 99 995.9 5.4 NW 12.1 0.8 1.6
10:39 8.1 8.0 99 995.9 6.0 NW 12.1 0.8 1.6
10:40 8.1 8.0 99 996.0 3.8 NW 12.1 1.5 1.6
10:41 8.1 8.0 99 996.0 8.3 N 12.1 1.5 1.6
10:42 8.1 8.0 99 996.0 7.6 WSW 12.1 1.5 1.7
10:43 8.1 8.0 99 995.9 6.9 NE 12.1 1.5 1.7
10:44 8.1 8.0 99 995.9 6.0 NW 12.1 1.5 1.8
10:45 8.1 8.0 99 995.9 6.0 S 8.3 1.5 1.8
10:46 8.1 8.0 99 995.9 5.4 N 8.3 1.5 1.8
10:47 8.1 8.0 99 995.8 6.0 NE 8.3 1.5 1.8
10:48 8.1 8.0 99 995.9 4.5 NW 8.3 1.5 1.8
10:49 8.1 8.0 99 995.9 9.2 N 9.2 1.5 1.9
10:50 8.1 8.0 99 995.9 4.5 N 9.2 1.5 1.9
10:51 8.1 8.0 99 995.9 3.8 NW 9.2 1.5 1.9
10:52 8.1 8.0 99 995.9 4.5 SE 9.2 1.5 2.0
10:53 8.1 8.0 99 995.9 7.6 N 9.2 1.5 2.0
10:54 8.1 8.0 99 995.7 6.9 NW 9.2 1.5 2.0
10:55 8.1 8.0 99 995.7 6.9 NE 9.2 0.8 2.0
10:56 8.2 8.1 99 995.8 7.6 N 9.2 1.5 2.0
10:57 8.2 8.1 99 995.8 3.8 NE 9.2 1.5 2.1
10:58 8.2 8.1 99 995.8 3.8 N 9.2 1.5 2.1
10:59 8.2 8.1 99 995.7 13.0 NE 13.0 1.5 2.1
11:00 8.2 8.1 99 995.7 13.0 NE 13.0 2.3 2.1
11:01 8.2 8.1 99 995.7 13.0 NE 13.0 1.5 2.1
11:02 8.2 8.1 99 995.7 13.0 NE 13.0 1.5 2.1
11:03 8.2 8.1 99 995.7 13.0 NE 13.0 0.8 2.1
11:04 8.2 8.1 99 995.7 13.0 NE 13.0 0.8 2.1
11:05 8.2 8.1 99 995.8 4.5 SE 13.0 0.0 2.3
11:06 8.2 8.1 99 995.7 6.0 N 13.0 1.5 2.3
11:08 8.2 8.1 99 995.7 6.0 N 13.0 1.5 2.3
11:09 8.2 8.1 99 995.5 3.8 NW 13.0 2.3 2.3
11:10 8.2 8.1 99 995.5 4.5 N 13.0 3.0 2.4
11:11 8.2 8.1 99 995.6 4.5 N 13.0 1.5 2.4
11:12 8.3 8.2 99 995.5 3.1 NE 13.0 1.5 2.4
11:13 8.3 8.2 99 995.5 4.5 N 13.0 1.5 2.5
11:14 8.3 8.2 99 995.4 5.4 SW 13.0 1.5 2.5
11:15 8.3 8.2 99 995.6 4.5 NE 13.0 1.5 2.5
11:16 8.3 8.2 99 995.5 4.5 SE 6.0 1.5 2.6
11:17 8.3 8.2 99 995.4 3.1 N 6.0 2.3 2.6
11:18 8.3 8.2 99 995.5 3.8 NE 6.0 3.0 2.6
11:19 8.4 8.3 99 995.5 2.2 N 5.4 2.3 2.7
11:20 8.4 8.3 99 995.4 3.8 N 5.4 2.3 2.7
11:21 8.4 8.3 99 995.5 2.2 E 5.4 2.3 2.8
11:22 8.4 8.3 99 995.3 3.8 E 5.4 2.3 2.8
11:23 8.4 8.3 99 995.4 3.8 NE 5.4 2.3 2.8
11:24 8.4 8.3 99 995.4 3.8 SE 4.5 2.3 2.9
11:25 8.4 8.3 99 995.3 8.3 SE 8.3 2.3 2.9
11:26 8.4 8.3 99 995.4 7.6 E 8.3 2.3 2.9
11:27 8.5 8.4 99 995.3 5.4 NE 8.3 2.3 3.0
11:28 8.5 8.4 99 995.3 4.5 E 8.3 1.5 3.0
11:29 8.5 8.4 99 995.2 3.1 SE 8.3 2.3 3.0
11:30 8.5 8.4 99 995.1 7.6 E 8.3 2.3 3.1
11:31 8.5 8.4 99 995.2 6.0 SE 8.3 2.3 3.1
11:33 8.6 8.5 99 995.3 6.0 NE 9.2 2.3 3.2
11:34 8.6 8.5 99 995.1 9.8 N 9.8 2.3 3.2
11:35 8.6 8.5 99 995.3 10.7 SE 10.7 1.5 3.2
11:36 8.6 8.5 99 995.2 5.4 SE 10.7 1.5 3.3
11:37 8.6 8.5 99 995.2 4.5 E 10.7 1.5 3.3
11:38 8.6 8.5 99 995.2 6.0 SE 10.7 1.5 3.3
11:39 8.7 8.6 99 995.3 9.2 SE 10.7 0.8 3.3
11:40 8.7 8.6 99 995.2 5.4 NE 10.7 1.5 3.3
11:41 8.7 8.6 99 995.1 7.6 E 10.7 1.5 3.4
11:42 8.7 8.6 99 995.2 6.0 E 10.7 1.5 3.4
11:43 8.7 8.6 99 995.2 4.5 N 10.7 1.5 3.4
11:44 8.7 8.6 99 995.2 6.0 SE 10.7 1.5 3.4
11:45 8.7 8.6 99 995.2 9.2 SE 9.2 0.8 3.5
11:46 8.7 8.6 99 995.2 3.8 E 9.2 1.5 3.5
11:47 8.8 8.7 99 995.0 6.0 SE 9.2 0.8 3.5
11:48 8.7 8.6 99 995.1 5.4 SE 9.2 1.5 3.5
11:49 8.8 8.7 99 995.0 5.4 SE 9.2 1.5 3.5
11:50 8.8 8.7 99 995.0 7.6 E 9.2 1.5 3.6
11:51 8.8 8.7 99 995.0 9.2 SE 9.2 1.5 3.6
11:53 8.8 8.7 99 995.0 3.1 W 9.2 0.8 3.6
11:54 8.8 8.7 99 994.9 4.5 NE 9.2 1.5 3.7
11:55 8.9 8.8 99 995.0 6.9 S 9.2 1.5 3.7
11:56 8.9 8.8 99 994.8 4.5 E 9.2 0.8 3.7
11:57 8.9 8.8 99 994.9 8.3 SE 9.2 0.8 3.7
11:58 8.9 8.8 99 995.0 8.3 NE 9.2 1.5 3.7
11:59 8.9 8.8 99 994.9 9.8 E 9.8 0.8 3.7
12:00 8.9 8.8 99 994.7 9.8 E 9.8 0.8 3.7
12:01 8.9 8.8 99 995.0 9.8 E 9.8 0.8 3.7
12:02 8.9 8.8 99 994.9 9.8 E 9.8 0.8 3.7
12:03 8.9 8.8 99 995.0 9.8 E 9.8 0.0 3.7
12:04 8.9 8.8 99 994.9 9.8 E 9.8 0.0 3.7
12:05 8.9 8.8 99 994.9 9.8 E 9.8 0.0 3.7
12:06 9.0 8.9 99 995.0 9.2 NE 9.8 1.5 3.8
12:07 9.0 8.9 99 994.9 9.2 SE 9.8 1.5 3.8
12:08 9.0 8.9 99 994.9 4.5 SE 9.8 1.5 3.9
12:09 9.1 9.0 99 994.8 9.2 SE 9.8 2.3 3.9
12:11 9.1 9.0 99 994.9 7.6 SE 9.8 0.8 3.9
12:13 9.1 9.0 99 994.8 10.7 S 10.7 1.5 4.0
12:14 9.1 9.0 99 994.8 13.0 SE 13.0 0.8 4.0
12:16 9.1 9.0 99 994.8 9.8 SE 14.5 1.5 4.0
12:17 9.2 9.1 99 994.7 9.8 SE 14.5 1.5 4.0
12:18 9.2 9.1 99 994.6 6.9 SE 14.5 0.8 4.0
12:19 9.2 9.1 99 994.6 10.7 SE 14.5 1.5 4.1
12:20 9.2 9.1 99 994.7 15.2 SE 15.2 1.5 4.1
12:21 9.3 9.2 99 994.7 10.7 SE 15.2 0.8 4.2
12:22 9.2 9.1 99 994.7 9.8 SE 15.2 1.5 4.2
12:23 9.3 9.2 99 994.7 9.2 SE 15.2 1.5 4.2
12:24 9.3 9.2 99 994.6 10.7 NNW 15.2 0.8 4.2
12:25 9.3 9.2 99 994.7 7.6 SE 15.2 1.5 4.2
12:26 9.3 9.2 99 994.5 6.9 SE 15.2 1.5 4.2
12:27 9.3 9.2 99 994.7 10.7 S 15.2 0.8 4.2
12:28 9.4 9.3 99 994.6 15.9 SE 15.9 0.8 4.3
12:29 9.4 9.3 99 994.5 10.7 SE 15.9 1.5 4.3
12:30 9.4 9.3 99 994.4 15.9 SE 15.9 0.8 4.3
12:31 9.4 9.3 99 994.7 10.7 SE 15.9 0.8 4.3
12:32 9.4 9.3 99 994.5 10.7 SE 15.9 0.8 4.3
12:33 9.4 9.3 99 994.5 9.2 S 15.9 1.5 4.3
12:34 9.5 9.4 99 994.6 10.7 SE 15.9 0.8 4.3
12:35 9.5 9.4 99 994.5 9.8 SE 15.9 0.8 4.4
12:36 9.5 9.4 99 994.5 14.5 SE 15.9 1.5 4.4
12:37 9.5 9.4 99 994.6 13.6 SE 15.9 1.5 4.4
12:38 9.5 9.4 99 994.5 13.6 SE 15.9 0.8 4.4
12:39 9.5 9.4 99 994.3 9.8 SE 15.9 1.5 4.5
12:40 9.6 9.5 99 994.4 10.7 SE 14.5 1.5 4.5
12:41 9.6 9.5 99 994.4 12.1 SE 14.5 1.5 4.5
12:42 9.6 9.5 99 994.2 9.8 SE 14.5 1.5 4.5
12:43 9.6 9.5 99 994.2 9.8 SE 14.5 1.5 4.5
12:44 9.6 9.5 99 994.2 10.7 SE 14.5 0.8 4.6
12:45 9.6 9.5 99 994.2 9.8 SE 14.5 1.5 4.6
12:46 9.6 9.5 99 994.2 12.1 SE 14.5 0.8 4.6
12:47 9.7 9.6 99 994.2 8.3 SE 14.5 0.8 4.7
12:48 9.7 9.6 99 994.2 10.7 SE 14.5 1.5 4.8
12:49 9.7 9.6 99 994.3 11.4 SE 14.5 3.0 4.9
12:50 9.7 9.6 99 994.1 9.2 SE 14.5 3.8 5.0
12:51 9.7 9.6 99 994.1 9.2 SE 14.5 5.3 5.1
12:52 9.7 9.6 99 994.1 7.6 SE 13.0 6.0 5.2
12:53 9.7 9.6 99 994.0 12.1 W 13.0 6.0 5.2
12:54 9.7 9.6 99 994.1 12.1 SE 13.0 5.3 5.3
12:55 9.8 9.7 99 994.0 11.4 SE 13.0 4.5 5.3
12:57 9.8 9.7 99 994.0 9.8 SE 13.0 3.0 5.4
12:58 9.8 9.7 99 994.1 9.8 SE 13.0 2.3 5.4
12:59 9.8 9.7 99 994.2 16.8 S 16.8 2.3 5.4
13:00 9.8 9.7 99 993.9 16.8 S 16.8 1.5 5.4
13:01 9.8 9.7 99 993.8 16.8 S 16.8 1.5 5.4
13:02 9.8 9.7 99 994.0 16.8 S 16.8 0.8 5.4
13:03 9.8 9.7 99 994.0 16.8 S 16.8 0.8 5.4
13:04 9.8 9.7 99 994.0 16.8 S 16.8 0.0 5.4
13:05 9.8 9.7 99 993.9 16.8 S 16.8 0.0 5.4
13:06 10.0 9.9 99 993.9 14.5 SE 16.8 1.5 5.6
13:07 10.0 9.9 99 993.8 12.1 SE 16.8 2.3 5.6
13:08 10.0 9.9 99 993.9 14.5 SE 16.8 2.3 5.7
13:09 10.0 9.9 99 993.7 13.6 SE 16.8 3.0 5.7
13:10 10.0 9.9 99 993.9 13.6 SE 16.8 3.0 5.7
13:11 10.0 9.9 99 993.9 15.9 SE 16.8 1.5 5.7
13:12 10.0 9.9 99 993.8 13.0 SE 16.8 1.5 5.7
13:13 10.0 9.9 99 993.9 14.5 SE 16.8 1.5 5.8
13:14 10.0 9.9 99 993.7 14.5 SE 16.8 1.5 5.8
13:15 10.0 9.9 99 993.8 15.2 SE 15.9 1.5 5.8
13:16 10.0 9.9 99 993.8 9.8 SE 15.9 1.5 5.9
13:17 10.0 9.9 99 993.8 11.4 SE 15.9 1.5 5.9
13:18 10.0 9.9 99 993.7 13.6 SE 15.9 1.5 5.9
13:20 10.0 9.9 99 993.7 9.2 SE 15.9 1.5 5.9
13:21 10.0 9.9 99 993.5 17.4 S 17.4 1.5 5.9
13:22 10.0 9.9 99 993.5 13.0 SE 17.4 1.5 6.0
13:23 10.0 9.9 99 993.3 8.3 SE 17.4 1.5 6.0
13:24 10.0 9.9 99 993.3 13.6 SE 17.4 1.5 6.0
13:25 10.0 9.9 99 993.4 7.6 SE 17.4 1.5 6.1
13:26 10.0 9.9 99 993.4 9.8 SE 17.4 2.3 6.1
13:27 10.1 10.0 99 993.4 16.8 SE 17.4 1.5 6.1
13:28 10.1 10.0 99 993.5 13.6 SE 17.4 1.5 6.2
13:29 10.1 10.0 99 993.5 13.6 SE 17.4 1.5 6.2
13:30 10.1 10.0 99 993.4 14.5 SE 17.4 1.5 6.2
13:31 10.1 10.0 99 993.3 17.4 SE 17.4 1.5 6.2
13:32 10.1 10.0 99 993.3 11.4 SE 17.4 1.5 6.3
13:34 10.1 10.0 99 993.4 12.1 SE 17.4 1.5 6.3
13:35 10.1 10.0 99 993.3 17.4 SE 17.4 1.5 6.4
13:36 10.1 10.0 99 993.3 12.1 SE 17.4 1.5 6.4
13:37 10.1 10.0 99 993.2 17.4 E 17.4 1.5 6.4
13:38 10.1 10.0 99 993.1 19.7 SE 19.7 1.5 6.4
13:39 10.2 10.1 99 993.2 16.8 S 19.7 1.5 6.4
13:40 10.1 10.0 99 993.3 15.2 SE 19.7 1.5 6.4
13:41 10.2 10.1 99 993.1 12.1 SE 19.7 0.8 6.5
13:42 10.2 10.1 99 993.2 13.6 E 19.7 1.5 6.5
13:43 10.2 10.1 99 993.1 12.1 SE 19.7 0.8 6.5
13:44 10.2 10.1 99 993.2 22.8 SE 22.8 0.8 6.5
13:45 10.2 10.1 99 993.1 13.0 N 22.8 0.8 6.6
13:46 10.2 10.1 99 993.0 15.9 SE 22.8 1.5 6.6
13:47 10.2 10.1 99 993.0 14.5 SE 22.8 0.8 6.6
13:48 10.2 10.1 99 993.0 11.4 SE 22.8 1.5 6.6
13:49 10.2 10.1 99 993.0 10.7 SE 22.8 1.5 6.7
13:50 10.2 10.1 99 993.0 13.6 SE 22.8 3.0 6.7
13:51 10.3 10.2 99 992.9 15.9 SE 22.8 2.3 6.8
13:52 10.2 10.1 99 992.9 14.5 SE 22.8 3.0 6.9
13:54 10.2 10.1 99 992.8 16.8 SE 22.8 3.8 6.9
13:55 10.2 10.1 99 992.9 20.6 SE 20.6 2.3 7.0
13:56 10.2 10.1 99 992.8 11.4 SE 20.6 3.0 7.0
13:57 10.2 10.1 99 992.8 18.3 SE 20.6 2.3 7.1
13:58 10.2 10.1 99 992.9 15.9 SE 20.6 2.3 7.1
13:59 10.2 10.1 99 992.7 6.9 SE 20.6 2.3 7.2
14:00 10.2 10.1 99 992.8 6.9 SE 20.6 3.0 7.2
14:01 10.2 10.1 99 992.6 6.9 SE 20.6 2.3 7.2
14:02 10.2 10.1 99 992.6 6.9 SE 20.6 2.3 7.2
14:03 10.2 10.1 99 992.7 6.9 SE 20.6 1.5 7.2
14:04 10.2 10.1 99 992.5 6.9 SE 20.6 0.8 7.2
14:05 10.2 10.1 99 992.5 6.9 SE 20.6 0.0 7.2
14:06 10.2 10.1 99 992.7 19.7 E 19.7 2.3 7.4
14:07 10.2 10.1 99 992.6 21.3 SE 21.3 3.0 7.4
14:08 10.2 10.1 99 992.6 18.3 SE 21.3 3.0 7.4
14:09 10.2 10.1 99 992.5 9.8 SE 21.3 3.0 7.5
14:11 10.2 10.1 99 992.6 15.9 SE 21.3 1.5 7.6
14:13 10.1 10.0 99 992.4 16.8 SSW 21.3 1.5 7.6
14:14 10.1 10.0 99 992.5 16.8 SE 21.3 2.3 7.6
14:16 10.1 10.0 99 992.3 12.1 SE 21.3 1.5 7.7
14:17 10.1 10.0 99 992.4 14.5 SE 18.3 1.5 7.7
14:19 10.1 10.0 99 992.4 25.1 SE 25.1 0.8 7.7
14:20 10.1 10.0 99 992.4 20.6 SE 25.1 0.8 7.7
14:21 10.1 10.0 99 992.3 19.0 SE 25.1 0.8 7.7
14:22 10.1 10.0 99 992.3 13.6 SE 25.1 0.0 7.7
14:23 10.1 10.0 99 992.3 22.1 SE 25.1 0.0 7.7
14:24 10.1 10.0 99 992.6 24.4 SE 25.1 0.0 7.7
14:25 10.1 10.0 99 992.3 19.7 SE 25.1 0.0 7.7
14:26 10.1 10.0 99 992.2 17.4 SE 25.1 0.0 7.7
14:27 10.1 10.0 99 992.1 20.6 E 25.1 0.0 7.7
14:28 10.1 10.0 99 992.2 22.8 S 25.1 0.0 7.7
14:30 10.1 10.0 99 992.1 25.1 SE 25.1 0.0 7.7
14:31 10.1 10.0 99 992.2 23.5 SE 25.1 0.0 7.7
14:32 10.1 10.0 99 992.2 25.9 E 25.9 0.0 7.7
14:33 10.1 10.0 99 992.1 21.3 NE 25.9 0.0 7.7
14:34 10.1 10.0 99 992.1 19.7 SE 25.9 0.0 7.7
14:35 10.1 10.0 99 992.1 25.9 NW 25.9 0.8 7.7
14:36 10.1 10.0 99 992.1 18.3 SE 25.9 0.8 7.7
14:37 10.1 10.0 99 991.9 25.1 SE 25.9 0.8 7.7
14:38 10.1 10.0 99 992.2 19.7 SE 25.9 0.8 7.7
14:39 10.2 10.1 99 992.0 18.3 SE 25.9 0.8 7.7
14:40 10.1 10.0 99 991.9 17.4 SE 25.9 0.0 7.7
14:41 10.2 10.1 99 991.9 20.6 S 25.9 0.0 7.7
14:42 10.1 10.0 99 991.9 18.3 SE 25.9 0.0 7.8
14:43 10.1 10.0 99 991.9 20.6 SE 25.9 0.8 7.8
14:44 10.1 10.0 99 991.8 16.8 E 25.9 0.8 7.8
14:45 10.1 10.0 99 991.8 16.8 SE 25.1 0.8 7.8
14:46 10.1 10.0 99 991.8 18.3 SE 25.1 0.8 7.8
14:47 10.2 10.1 99 991.8 19.0 SE 20.6 0.0 7.8
14:48 10.1 10.0 99 991.9 19.0 S 20.6 0.0 7.8
14:49 10.1 10.0 99 991.9 15.2 SE 20.6 0.0 7.8
14:50 10.1 10.0 99 991.8 16.8 SE 20.6 0.0 7.8
14:51 10.1 10.0 99 991.9 19.7 S 20.6 0.0 7.8
14:52 10.1 10.0 99 991.8 17.4 SE 20.6 0.0 7.8
14:53 10.1 10.0 99 991.8 15.2 SE 20.6 0.0 7.8
14:54 10.1 10.0 99 991.9 19.7 SE 20.6 0.0 7.8
14:55 10.1 10.0 99 991.8 15.9 SE 20.6 0.0 7.8
14:56 10.1 10.0 99 991.8 19.7 S 20.6 0.0 7.8
14:57 10.1 10.0 99 991.8 15.2 S 19.7 0.0 7.8
14:58 10.1 10.0 99 991.7 19.0 SE 19.7 0.0 7.8
14:59 10.2 10.1 99 991.8 17.4 SE 24.4 0.8 7.9
15:00 10.2 10.1 99 991.7 17.4 SE 24.4 0.8 7.9
15:01 10.2 10.1 99 991.7 17.4 SE 24.4 0.8 7.9
15:02 10.2 10.1 99 991.7 12.1 SE 24.4 1.5 7.9
15:03 10.2 10.1 99 991.7 24.4 SE 24.4 1.5 7.9
15:04 10.1 10.0 99 991.5 18.3 SE 24.4 0.8 8.0
15:05 10.2 10.1 99 991.5 22.1 SE 24.4 1.5 8.0
15:07 10.2 10.1 99 991.6 15.9 SE 24.4 1.5 8.1
15:09 10.2 10.1 99 991.5 15.9 SE 24.4 2.3 8.1
15:10 10.2 10.1 99 991.5 19.0 SE 24.4 2.3 8.2
15:11 10.2 10.1 99 991.5 16.8 SE 24.4 2.3 8.3
15:12 10.2 10.1 99 991.4 18.3 WSW 24.4 3.0 8.3
15:13 10.2 10.1 99 991.4 14.5 SE 24.4 2.3 8.3
15:14 10.2 10.1 99 991.4 14.5 SE 23.5 2.3 8.3
15:15 10.2 10.1 99 991.5 18.3 SE 23.5 2.3 8.4
15:16 10.1 10.0 99 991.4 19.0 SE 23.5 1.5 8.4
15:17 10.2 10.1 99 991.4 16.8 SE 20.6 0.8 8.4
15:18 10.1 10.0 99 991.4 15.2 SE 19.0 1.5 8.4
15:19 10.2 10.1 99 991.4 13.6 SE 19.0 1.5 8.4
15:20 10.1 10.0 99 991.4 19.0 SE 19.0 0.8 8.4
15:21 10.1 10.0 99 991.4 13.0 SE 19.0 1.5 8.5
15:22 10.2 10.1 99 991.5 18.3 SE 22.1 2.3 8.6
15:23 10.2 10.1 99 991.3 22.1 SE 22.1 2.3 8.6
15:24 10.2 10.1 99 991.4 24.4 SE 24.4 2.3 8.6
15:25 10.2 10.1 99 991.5 13.6 SE 24.4 3.0 8.7
15:26 10.2 10.1 99 991.4 13.0 S 24.4 2.3 8.7
15:27 10.2 10.1 99 991.4 14.5 S 24.4 1.5 8.8
15:28 10.2 10.1 99 991.3 12.1 S 24.4 1.5 8.8
15:29 10.3 10.2 99 991.3 11.4 SE 24.4 1.5 8.8
15:30 10.2 10.1 99 991.2 18.3 SE 24.4 0.8 8.8
15:31 10.2 10.1 99 991.4 15.2 SE 24.4 0.8 8.8
15:32 10.3 10.2 99 991.2 15.9 SE 24.4 1.5 8.8
15:33 10.2 10.1 99 991.2 15.9 S 24.4 0.8 8.8
15:35 10.3 10.2 99 991.3 12.1 S 18.3 0.8 8.8
15:36 10.3 10.2 99 991.4 13.6 SE 18.3 0.8 8.8
15:37 10.3 10.2 99 991.4 15.2 S 18.3 0.0 8.8
15:38 10.3 10.2 99 991.3 19.0 S 19.0 0.0 8.8
15:39 10.4 10.3 99 991.3 19.0 SE 19.0 0.0 8.8
15:40 10.4 10.3 99 991.3 17.4 SE 19.0 0.0 8.8
15:41 10.4 10.3 99 991.2 12.1 S 19.0 0.0 8.8
15:42 10.4 10.3 99 991.2 13.0 SE 19.0 0.0 8.8
15:43 10.4 10.3 99 991.3 19.7 SE 19.7 0.0 8.8
15:44 10.4 10.3 99 991.2 17.4 SE 19.7 0.0 8.8
15:45 10.4 10.3 99 991.3 13.6 SE 19.7 0.0 8.8
15:46 10.4 10.3 99 991.2 20.6 S 21.3 0.0 8.8
15:47 10.4 10.3 99 991.2 13.0 S 21.3 0.0 8.8
15:48 10.4 10.3 99 991.2 15.2 SE 21.3 0.0 8.8
15:49 10.4 10.3 99 991.2 14.5 S 21.3 0.0 8.8
15:50 10.5 10.4 99 991.1 15.2 SE 21.3 0.0 8.8
15:51 10.5 10.4 99 991.3 21.3 S 21.3 0.0 8.8
15:52 10.5 10.4 99 991.2 15.9 S 21.3 0.0 8.8
15:53 10.5 10.4 99 991.2 19.7 SE 21.3 0.0 8.8
15:54 10.5 10.4 99 991.1 19.7 SE 21.3 0.0 8.8
15:55 10.6 10.5 99 991.1 17.4 S 21.3 0.0 8.8
15:56 10.5 10.4 99 991.2 18.3 S 21.3 0.0 8.8
15:57 10.6 10.5 99 991.1 14.5 SE 21.3 0.0 8.8
15:58 10.6 10.5 99 991.2 19.0 SE 21.3 0.0 8.8
15:59 10.6 10.5 99 991.2 15.2 S 21.3 0.0 8.8
16:00 10.6 10.5 99 991.2 15.2 S 21.3 0.0 8.8
16:01 10.6 10.5 99 991.1 15.2 S 19.7 0.0 8.8
16:02 10.6 10.5 99 991.1 15.2 S 19.7 0.0 8.8
16:03 10.6 10.5 99 991.2 17.4 WSW 19.7 0.0 8.8
16:04 10.6 10.5 99 991.1 19.0 SE 19.0 0.0 8.8
16:05 10.6 10.5 99 991.3 15.9 SE 19.0 0.0 8.8
16:06 10.7 10.6 99 991.2 19.0 W 19.0 0.0 8.8
16:08 10.6 10.5 99 991.1 13.0 S 19.0 0.0 8.8
16:09 10.6 10.5 99 991.1 20.6 S 20.6 0.0 8.8
16:10 10.7 10.6 99 991.2 18.3 S 20.6 0.0 8.8
16:11 10.6 10.5 99 991.1 19.0 SE 20.6 0.0 8.8
16:13 10.7 10.6 99 991.2 15.2 S 20.6 0.0 8.8
16:14 10.7 10.6 99 991.1 21.3 SE 21.3 0.0 8.8
16:15 10.7 10.6 99 991.2 15.2 S 21.3 0.0 8.8
16:17 10.7 10.6 99 991.2 11.4 NW 21.3 0.0 8.8
16:18 10.7 10.6 99 991.2 13.6 S 21.3 0.0 8.8
16:19 10.7 10.6 99 991.1 18.3 S 21.3 0.0 8.8
16:20 10.8 10.7 99 991.1 20.6 SE 21.3 0.0 8.8
16:21 10.8 10.7 99 991.1 17.4 SE 21.3 0.0 8.8
16:22 10.8 10.7 99 991.1 15.9 SE 21.3 0.0 8.8
16:23 10.8 10.7 99 991.1 15.2 NW 21.3 0.8 8.9
16:24 10.8 10.7 99 991.0 19.7 SE 20.6 0.8 8.9
16:25 10.8 10.7 99 991.0 18.3 S 20.6 0.8 8.9
16:26 10.8 10.7 99 991.1 15.2 SE 20.6 0.8 8.9
16:28 10.8 10.7 99 991.0 20.6 N 20.6 0.0 8.9
16:29 10.8 10.7 99 991.1 15.2 WSW 20.6 0.0 8.9
16:30 10.8 10.7 99 991.0 15.9 WSW 20.6 0.0 8.9
16:31 10.8 10.7 99 991.0 18.3 NE 20.6 0.0 8.9
16:32 10.8 10.7 99 991.0 19.7 S 20.6 0.0 8.9
16:33 10.9 10.8 99 991.2 21.3 S 21.3 0.0 8.9
16:34 10.8 10.7 99 991.1 21.3 SE 21.3 0.0 8.9
16:35 10.8 10.7 99 991.0 15.2 NNE 21.3 0.0 8.9
16:37 10.8 10.7 99 991.0 14.5 S 21.3 0.0 8.9
16:38 10.8 10.7 99 991.1 15.9 S 21.3 0.0 8.9
16:39 10.9 10.8 99 990.9 18.3 S 21.3 0.0 8.9
16:40 10.8 10.7 99 991.0 20.6 S 21.3 0.0 8.9
16:41 10.9 10.8 99 991.0 17.4 SE 21.3 0.0 8.9
16:42 10.8 10.7 99 991.0 15.2 S 21.3 0.0 8.9
16:43 10.9 10.8 99 991.1 19.7 S 21.3 0.0 8.9
16:44 10.9 10.8 99 991.0 13.6 S 21.3 0.0 8.9
16:45 10.9 10.8 99 991.1 13.6 SE 20.6 0.0 8.9
16:46 10.9 10.8 99 991.1 15.9 S 20.6 0.0 8.9
16:47 10.8 10.7 99 991.1 19.0 S 20.6 0.0 8.9
16:48 10.9 10.8 99 991.1 16.8 S 20.6 0.0 8.9
16:49 10.9 10.8 99 991.1 20.6 S 20.6 0.0 8.9
16:50 10.9 10.8 99 991.2 18.3 S 20.6 0.0 8.9
16:51 10.9 10.8 99 991.1 18.3 S 20.6 0.0 8.9
16:53 10.9 10.8 99 991.2 16.8 SE 20.6 0.0 8.9
16:54 10.8 10.7 99 991.0 18.3 SE 20.6 0.0 8.9
16:55 10.8 10.7 99 991.2 15.2 S 20.6 0.0 8.9
16:56 10.8 10.7 99 991.3 15.2 S 20.6 0.0 8.9
16:57 10.9 10.8 99 991.1 19.0 S 20.6 0.0 8.9
16:58 10.9 10.8 99 991.2 17.4 S 20.6 0.0 8.9
16:59 10.9 10.8 99 991.1 15.2 SE 20.6 0.0 8.9
17:00 10.8 10.7 99 991.2 19.0 S 19.0 0.0 8.9
17:01 10.8 10.7 99 991.2 19.0 S 19.0 0.0 8.9
17:02 10.9 10.8 99 991.2 20.6 WSW 20.6 0.0 8.9
17:03 10.9 10.8 99 991.1 15.9 S 20.6 0.0 8.9
17:04 10.8 10.7 99 991.0 14.5 S 20.6 0.0 8.9
17:05 10.8 10.7 99 991.3 19.7 S 20.6 0.0 8.9
17:06 10.8 10.7 99 991.2 22.1 S 22.1 0.0 8.9
17:07 10.8 10.7 99 991.2 18.3 SE 22.1 0.0 8.9
17:08 10.9 10.8 99 991.1 15.9 SE 22.1 0.0 8.9
17:09 10.9 10.8 99 991.1 15.9 S 22.1 0.0 8.9
17:10 10.9 10.8 99 991.3 13.6 S 22.1 0.8 8.9
17:11 10.9 10.8 99 991.2 15.2 WSW 22.1 0.8 8.9
17:12 10.9 10.8 99 991.3 14.5 S 22.1 0.8 8.9
17:13 10.9 10.8 99 991.2 20.6 SE 22.1 0.8 8.9
17:15 10.9 10.8 99 991.2 15.9 WSW 22.1 0.0 8.9
17:16 10.9 10.8 99 991.2 15.2 S 22.1 0.0 8.9
17:17 10.9 10.8 99 991.2 15.9 WSW 20.6 0.0 8.9
17:18 10.9 10.8 99 991.4 19.0 S 20.6 0.0 8.9
17:19 10.9 10.8 99 991.2 16.8 S 20.6 0.0 8.9
17:20 10.9 10.8 99 991.1 14.5 S 20.6 0.0 8.9
17:21 10.9 10.8 99 991.3 15.2 S 20.6 0.0 8.9
17:22 10.9 10.8 99 991.1 15.2 S 20.6 0.0 8.9
17:23 10.9 10.8 99 991.3 15.2 SE 20.6 0.0 8.9
17:24 10.9 10.8 99 991.1 19.0 S 19.0 0.0 8.9
17:25 10.9 10.8 99 991.2 15.9 S 19.0 0.0 8.9
17:26 10.9 10.8 99 991.0 15.2 S 19.7 0.0 8.9
17:27 10.9 10.8 99 991.2 15.9 WSW 19.7 0.0 8.9
17:28 10.9 10.8 99 991.2 13.6 WSW 19.7 0.0 8.9
17:29 10.9 10.8 99 991.2 13.6 S 19.7 0.0 8.9
17:30 10.9 10.8 99 991.2 14.5 S 19.7 0.0 8.9
17:31 10.9 10.8 99 991.3 17.4 S 19.7 0.8 9.0
17:33 10.9 10.8 99 991.2 12.1 SE 19.7 0.8 9.0
17:34 10.9 10.8 99 991.3 14.5 S 19.7 0.8 9.0
17:35 10.9 10.8 99 991.3 15.9 S 19.7 0.8 9.0
17:36 10.9 10.8 99 991.3 18.3 S 18.3 0.0 9.0
17:37 10.9 10.8 99 991.2 15.2 S 18.3 0.0 9.0
17:38 10.9 10.8 99 991.3 17.4 S 19.7 0.0 9.0
17:39 10.9 10.8 99 991.4 19.0 SE 19.7 0.0 9.0
17:40 10.9 10.8 99 991.2 16.8 S 19.7 0.0 9.0
17:41 10.9 10.8 99 991.4 22.8 S 22.8 0.0 9.0
17:42 10.9 10.8 99 991.3 16.8 NW 22.8 0.0 9.0
17:43 10.9 10.8 99 991.2 16.8 W 22.8 0.0 9.0
17:44 10.8 10.7 99 991.2 15.9 S 22.8 0.0 9.0
17:45 10.8 10.7 99 991.2 12.1 SE 22.8 0.0 9.0
17:46 10.8 10.7 99 991.1 15.9 S 22.8 0.0 9.0
17:47 10.8 10.7 99 991.2 13.6 S 22.8 0.0 9.0
17:48 10.8 10.7 99 991.2 12.1 S 22.8 0.0 9.0
17:49 10.8 10.7 99 991.3 13.6 S 22.8 0.0 9.0
17:50 10.8 10.7 99 991.2 16.8 S 22.8 0.0 9.0
17:51 10.9 10.8 99 991.2 15.9 S 19.7 0.0 9.0
17:52 10.8 10.7 99 991.2 14.5 S 19.7 0.0 9.0
17:53 10.8 10.7 99 991.4 19.7 SE 19.7 0.0 9.0
17:55 10.8 10.7 99 991.3 14.5 S 19.7 0.0 9.0
17:56 10.8 10.7 99 991.3 12.1 S 19.7 0.0 9.0
17:57 10.8 10.7 99 991.2 13.0 S 19.7 0.0 9.0
17:58 10.8 10.7 99 991.3 15.2 S 19.7 0.0 9.0
17:59 10.8 10.7 99 991.2 16.8 NNE 19.7 0.0 9.0
18:00 10.8 10.7 99 991.2 15.2 SE 19.7 0.0 9.0
18:01 10.8 10.7 99 991.2 15.2 SE 19.7 0.0 9.0
18:02 10.8 10.7 99 991.4 17.4 S 19.7 0.8 9.1
18:03 10.8 10.7 99 991.3 15.2 S 19.7 0.8 9.1
18:04 10.8 10.7 99 991.5 20.6 S 20.6 0.8 9.1
18:05 10.8 10.7 99 991.3 15.9 S 20.6 0.8 9.1
18:06 10.8 10.7 99 991.4 19.0 S 23.5 0.8 9.1
18:07 10.9 10.8 99 991.4 19.0 SE 23.5 0.0 9.1
18:08 10.9 10.8 99 991.2 14.5 S 23.5 0.0 9.1
18:09 10.9 10.8 99 991.4 18.3 S 23.5 0.0 9.1
18:11 10.9 10.8 99 991.5 20.6 SE 23.5 0.0 9.1
18:12 10.9 10.8 99 991.3 15.2 S 23.5 0.0 9.1
18:13 10.9 10.8 99 991.4 16.8 S 23.5 0.0 9.1
18:15 10.9 10.8 99 991.3 16.8 S 23.5 0.0 9.1
18:16 10.9 10.8 99 991.5 14.5 SW 22.1 0.0 9.1
18:18 10.9 10.8 99 991.5 19.0 NNE 22.1 0.0 9.1
18:19 10.9 10.8 99 991.4 17.4 S 22.1 0.0 9.1
18:21 11.0 10.9 99 991.4 15.2 SE 20.6 0.0 9.1
18:22 10.9 10.8 99 991.4 18.3 SE 19.7 0.0 9.1
18:23 10.9 10.8 99 991.4 16.8 S 19.7 0.0 9.1
18:24 10.9 10.8 99 991.4 14.5 S 19.7 0.0 9.1
18:25 10.9 10.8 99 991.4 15.2 SE 19.7 0.0 9.1
18:26 10.9 10.8 99 991.5 13.6 SE 19.7 0.0 9.1
18:27 10.9 10.8 99 991.5 15.9 S 19.7 0.0 9.1
18:28 10.9 10.8 99 991.4 15.2 S 19.7 0.0 9.1
18:29 10.9 10.8 99 991.5 15.2 W 19.7 0.0 9.1
18:30 10.9 10.8 99 991.5 15.9 S 19.7 0.0 9.1
18:31 10.9 10.8 99 991.5 13.0 S 18.3 0.0 9.1
18:32 10.9 10.8 99 991.4 18.3 S 18.3 0.0 9.1
18:33 10.9 10.8 99 991.6 15.9 S 18.3 0.0 9.1
18:34 10.9 10.8 99 991.4 15.2 SE 18.3 0.0 9.1
18:36 10.9 10.8 99 991.5 12.1 S 18.3 0.0 9.1
18:37 10.9 10.8 99 991.5 16.8 S 18.3 0.0 9.1
18:38 10.9 10.8 99 991.6 18.3 S 18.3 0.0 9.1
18:39 10.8 10.7 99 991.6 20.6 SE 20.6 0.0 9.1
18:40 10.8 10.7 99 991.4 16.8 S 20.6 0.0 9.1
18:41 10.9 10.8 99 991.5 14.5 S 20.6 0.0 9.1
18:42 10.8 10.7 99 991.6 16.8 S 20.6 0.0 9.1
18:43 10.8 10.7 99 991.5 14.5 S 20.6 0.0 9.1
18:44 10.8 10.7 99 991.6 15.2 S 20.6 0.0 9.1
18:45 10.8 10.7 99 991.5 18.3 SE 20.6 0.0 9.1
18:46 10.8 10.7 99 991.6 18.3 WSW 20.6 0.0 9.1
18:47 10.8 10.7 99 991.7 16.8 S 20.6 0.0 9.1
18:48 10.8 10.7 99 991.5 21.3 S 21.3 0.0 9.1
18:50 10.8 10.7 99 991.6 14.5 NW 21.3 0.0 9.1
18:51 10.8 10.7 99 991.6 13.0 S 21.3 0.0 9.1
18:52 10.9 10.8 99 991.7 16.8 S 21.3 0.0 9.1
18:53 10.8 10.7 99 991.6 17.4 SE 21.3 0.0 9.1
18:54 10.8 10.7 99 991.5 15.2 S 21.3 0.0 9.1
18:56 10.8 10.7 99 991.6 20.6 S 21.3 0.0 9.1
18:57 10.8 10.7 99 991.6 15.9 S 23.5 0.8 9.1
18:58 10.8 10.7 99 991.4 19.0 S 23.5 0.8 9.1
18:59 10.9 10.8 99 991.6 15.9 S 23.5 0.8 9.1
19:00 10.9 10.8 99 991.7 15.9 S 23.5 0.8 9.1
19:02 10.9 10.8 99 991.7 15.9 W 23.5 0.0 9.1
19:03 10.9 10.8 99 991.6 11.4 SE 23.5 0.0 9.1
19:04 10.9 10.8 99 991.6 17.4 SE 23.5 0.0 9.1
19:05 10.9 10.8 99 991.7 14.5 S 23.5 0.0 9.1
19:06 10.9 10.8 99 991.4 15.9 S 23.5 0.0 9.1
19:07 10.9 10.8 99 991.4 15.2 S 22.1 0.0 9.1
19:08 10.9 10.8 99 991.5 17.4 SE 22.1 0.0 9.1
19:09 10.9 10.8 99 991.4 18.3 S 22.1 0.0 9.1
19:10 10.9 10.8 99 991.4 16.8 S 22.1 0.0 9.1
19:12 10.9 10.8 99 991.3 15.9 WSW 22.1 0.0 9.1
19:13 10.9 10.8 99 991.4 15.2 S 22.1 0.0 9.1
19:14 11.0 10.9 99 991.5 14.5 S 22.1 0.0 9.1
19:15 11.0 10.9 99 991.4 11.4 S 18.3 0.0 9.1
19:16 11.0 10.9 99 991.3 13.6 SE 18.3 0.0 9.1
19:17 10.9 10.8 99 991.3 14.5 WSW 18.3 0.0 9.1
19:18 10.9 10.8 99 991.4 18.3 S 18.3 0.0 9.1
19:20 11.0 10.9 99 991.3 11.4 S 18.3 0.0 9.1
19:21 11.0 10.9 99 991.5 13.6 SE 18.3 0.0 9.1
19:22 11.0 10.9 99 991.5 19.0 W 19.0 0.0 9.1
19:24 11.0 10.9 99 991.5 15.9 W 19.0 0.0 9.1
19:25 11.0 10.9 99 991.4 15.9 SE 19.0 0.0 9.1
19:26 11.0 10.9 99 991.2 14.5 S 19.0 0.0 9.1
19:27 11.0 10.9 99 991.2 14.5 NW 19.0 0.0 9.1
19:28 11.0 10.9 99 991.3 15.2 S 19.0 0.0 9.1
19:29 11.0 10.9 99 991.2 14.5 W 19.0 0.0 9.1
19:30 11.0 10.9 99 991.4 19.0 S 19.0 0.0 9.1
19:31 11.0 10.9 99 991.4 18.3 SE 19.0 0.0 9.1
19:33 10.9 10.8 99 991.4 12.1 S 19.0 0.0 9.1
19:34 11.0 10.9 99 991.4 17.4 S 19.0 0.0 9.1
19:35 10.9 10.8 99 991.4 15.2 SE 19.0 0.0 9.1
19:36 10.9 10.8 99 991.6 15.9 SE 19.0 0.0 9.1
19:37 10.9 10.8 99 991.4 17.4 S 19.0 0.0 9.1
19:38 10.9 10.8 99 991.3 17.4 S 19.0 0.0 9.1
19:40 10.9 10.8 99 991.2 18.3 S 19.0 0.0 9.1
19:41 10.9 10.8 99 991.4 18.3 SE 19.0 0.0 9.1
19:42 10.9 10.8 99 991.5 16.8 SE 19.0 0.0 9.1
19:43 10.9 10.8 99 991.4 17.4 S 19.0 0.0 9.1
19:44 10.9 10.8 99 991.3 18.3 S 19.0 0.0 9.1
19:45 10.9 10.8 99 991.3 16.8 SE 19.0 0.0 9.1
19:46 10.9 10.8 99 991.3 20.6 S 20.6 0.0 9.1
19:47 10.9 10.8 99 991.3 17.4 SE 20.6 0.0 9.1
19:48 10.9 10.8 99 991.4 15.9 SE 20.6 0.0 9.1
19:50 10.9 10.8 99 991.2 18.3 S 20.6 0.0 9.1
19:51 10.9 10.8 99 991.2 19.7 SE 20.6 0.8 9.2
19:52 10.9 10.8 99 991.2 15.9 SE 20.6 0.8 9.2
19:53 10.9 10.8 99 991.4 15.2 S 20.6 0.8 9.2
19:54 10.9 10.8 99 991.4 15.9 S 20.6 0.8 9.2
19:55 10.9 10.8 99 991.2 14.5 SE 20.6 0.8 9.2
19:56 10.9 10.8 99 991.3 15.9 SE 20.6 0.0 9.2
19:57 10.9 10.8 99 991.3 17.4 SSW 19.7 0.0 9.2
19:59 10.9 10.8 99 991.2 13.0 S 19.7 0.0 9.2
20:00 10.9 10.8 99 991.2 14.5 SE 19.7 0.0 9.2
20:01 10.9 10.8 99 991.2 14.5 SE 19.0 0.0 9.2
20:02 10.9 10.8 99 991.3 14.5 SE 19.0 0.0 9.2
20:03 10.9 10.8 99 991.2 14.5 SE 19.0 0.0 9.2
20:04 10.9 10.8 99 991.3 19.7 SE 19.7 0.0 9.3
20:05 10.9 10.8 99 991.2 20.6 S 20.6 0.8 9.3
20:07 10.9 10.8 99 991.2 15.9 NW 20.6 0.8 9.3
20:08 10.9 10.8 99 991.0 15.2 S 20.6 0.8 9.3
20:09 10.9 10.8 99 991.1 19.0 NNW 20.6 0.8 9.3
20:10 10.9 10.8 99 991.0 16.8 SE 20.6 0.0 9.3
20:12 10.9 10.8 99 991.1 17.4 S 20.6 0.0 9.3
20:14 10.9 10.8 99 990.9 14.5 SE 20.6 0.8 9.3
20:16 10.9 10.8 99 990.9 15.9 S 19.0 1.5 9.4
20:17 10.9 10.8 99 991.0 16.8 S 19.0 2.3 9.4
20:19 10.9 10.8 99 991.1 17.4 S 19.7 3.0 9.6
20:20 10.9 10.8 99 990.9 15.2 S 20.6 3.0 9.6
20:22 10.9 10.8 99 991.0 15.9 S 20.6 3.0 9.8
20:24 10.9 10.8 99 991.0 16.8 SE 20.6 3.0 9.9
20:25 10.9 10.8 99 991.0 13.0 S 20.6 3.8 10.0
20:27 10.9 10.8 99 991.0 15.9 SE 20.6 3.8 10.0
20:28 11.0 10.9 99 991.0 19.7 S 20.6 3.8 10.1
20:29 10.9 10.8 99 990.9 16.8 SE 20.6 3.8 10.2
20:30 10.9 10.8 99 991.0 15.9 S 19.7 3.8 10.3
20:32 10.9 10.8 99 990.8 19.0 S 19.7 3.8 10.5
20:33 10.9 10.8 99 990.8 19.0 S 19.7 4.5 10.5
20:34 10.9 10.8 99 990.8 18.3 S 19.7 5.3 10.6
20:35 10.9 10.8 99 991.0 13.6 S 19.7 5.3 10.7
20:37 10.9 10.8 99 991.0 18.3 SE 19.7 6.0 10.9
20:38 11.0 10.9 99 990.7 17.4 S 19.7 6.0 11.1
20:39 11.0 10.9 99 990.7 13.0 S 19.0 6.0 11.2
20:40 11.0 10.9 99 990.8 14.5 S 19.0 6.8 11.3
20:42 10.9 10.8 99 990.7 15.2 SE 19.0 7.5 11.5
20:43 11.0 10.9 99 990.8 17.4 SE 18.3 7.5 11.6
20:44 10.9 10.8 99 990.6 19.0 S 19.0 6.8 11.7
20:46 11.0 10.9 99 990.8 19.0 S 19.0 6.0 11.8
20:48 11.0 10.9 99 990.8 16.8 SE 19.0 3.8 11.9
20:49 10.9 10.8 99 990.8 16.8 SE 22.1 3.8 12.1
20:50 10.9 10.8 99 990.8 14.5 NW 22.1 5.3 12.2
20:52 10.9 10.8 99 990.7 15.2 S 22.1 5.3 12.3
20:55 10.9 10.8 99 990.8 16.8 SE 22.1 5.3 12.6
20:57 10.9 10.8 99 990.7 15.2 S 22.1 6.0 12.9
20:58 10.9 10.8 99 990.7 18.3 S 20.6 8.3 13.1
21:00 11.0 10.9 99 990.7 14.5 S 20.6 7.5 13.2
21:02 11.0 10.9 99 990.7 15.2 S 20.6 7.5 13.4
21:03 11.0 10.9 99 990.7 15.2 S 18.3 5.3 13.5
21:05 11.0 10.9 99 990.7 17.4 S 18.3 4.5 13.7
21:06 11.1 11.0 99 990.7 17.4 S 18.3 7.5 13.9
21:08 11.1 11.0 99 990.7 17.4 S 18.3 7.6 14.1
21:09 11.1 11.0 99 990.7 17.4 SE 17.4 11.3 14.6
21:10 11.0 10.9 99 990.5 15.9 SE 17.4 12.1 14.8
21:11 11.1 11.0 99 990.4 13.6 S 17.4 11.3 14.9
21:13 11.1 11.0 99 990.5 20.6 SE 20.6 10.6 15.0
21:14 11.1 11.0 99 990.6 14.5 S 20.6 8.3 15.1
21:16 11.1 11.0 99 990.6 13.0 S 20.6 4.5 15.2
21:18 11.1 11.0 99 990.6 19.0 SE 20.6 4.5 15.4
21:21 11.0 10.9 99 990.3 20.6 SE 20.6 3.8 15.6
21:23 11.0 10.9 99 990.6 17.4 S 20.6 2.3 15.6
21:25 11.0 10.9 99 990.5 19.7 SE 20.6 1.5 15.6
21:27 11.0 10.9 99 990.6 17.4 SE 20.6 1.5 15.7
21:29 11.0 10.9 99 990.4 13.0 S 20.6 1.5 15.7
21:31 11.0 10.9 99 990.4 15.2 WSW 22.1 2.3 15.9
21:33 11.0 10.9 99 990.4 16.8 S 22.1 3.8 16.2
21:36 11.0 10.9 99 990.5 19.7 S 22.1 6.8 16.5
21:39 11.0 10.9 99 990.3 19.0 S 22.1 4.5 16.7
21:42 11.0 10.9 99 990.2 25.9 S 25.9 3.8 16.8
21:45 11.0 10.9 99 990.4 19.0 WNW 25.9 2.3 16.9
21:47 10.9 10.8 99 990.6 19.0 SE 25.9 2.3 17.0
21:48 11.0 10.9 99 990.4 20.6 S 25.9 1.5 17.1
21:50 11.1 11.0 99 990.5 22.1 S 25.9 2.3 17.1
21:51 11.1 11.0 99 990.4 18.3 SE 25.9 2.3 17.1
21:52 11.1 11.0 99 990.5 21.3 S 25.9 2.3 17.3
21:53 11.1 11.0 99 990.5 22.8 S 24.4 3.0 17.3
21:54 11.1 11.0 99 990.7 21.3 S 22.8 2.3 17.3
21:55 11.1 11.0 99 990.4 19.0 S 22.8 2.3 17.4
21:56 11.1 11.0 99 990.4 15.2 S 22.8 3.0 17.5
21:57 11.1 11.0 99 990.5 15.2 S 22.8 3.0 17.5
21:59 11.1 11.0 99 990.3 15.9 S 22.8 4.5 17.6
22:00 11.1 11.0 99 990.2 18.3 E 22.8 3.8 17.6
22:01 11.1 11.0 99 990.3 18.3 E 22.8 3.0 17.6
22:02 11.1 11.0 99 990.5 18.3 E 22.8 2.3 17.6
22:04 11.1 11.0 99 990.4 18.3 E 21.3 0.0 17.6
22:06 11.2 11.1 99 990.2 16.8 S 18.3 6.0 18.1
22:08 11.2 11.1 99 990.2 23.5 SE 23.5 7.5 18.3
22:10 11.2 11.1 99 990.2 17.4 SE 23.5 11.3 18.8
22:12 11.3 11.2 99 990.3 13.6 S 23.5 8.3 19.0
22:14 11.3 11.2 99 990.3 15.9 WSW 23.5 9.1 19.3
22:16 11.2 11.1 99 990.2 19.7 SE 23.5 6.8 19.5
22:17 11.2 11.1 99 990.2 19.0 NW 23.5 6.8 19.7
22:19 11.3 11.2 99 990.2 22.1 S 22.1 6.8 19.9
22:21 11.3 11.2 99 990.0 21.3 S 28.2 9.1 20.3
22:23 11.3 11.2 99 990.2 16.8 S 28.2 9.1 20.4
22:24 11.3 11.2 99 990.0 25.1 SE 28.2 9.1 20.5
22:26 11.4 11.3 99 990.0 19.0 S 28.2 5.3 20.7
22:28 11.4 11.3 99 990.2 23.5 S 28.2 3.8 20.7
22:30 11.4 11.3 99 990.1 19.0 S 28.2 4.5 20.9
22:32 11.4 11.3 99 989.9 21.3 S 25.1 3.0 20.9
22:33 11.4 11.3 99 989.9 19.7 SE 25.1 2.3 20.9
22:34 11.4 11.3 99 990.1 20.6 S 25.1 1.5 20.9
22:36 11.4 11.3 99 989.9 22.8 S 23.5 0.0 20.9
22:37 11.4 11.3 99 990.1 17.4 S 23.5 0.0 20.9
22:38 11.4 11.3 99 990.2 20.6 S 22.8 0.0 20.9
22:40 11.4 11.3 99 990.0 25.1 S 25.1 0.0 20.9
22:42 11.3 11.2 99 989.9 24.4 S 25.1 0.0 20.9
22:46 11.3 11.2 99 990.0 23.5 S 27.3 0.0 20.9
22:48 11.3 11.2 99 989.9 24.4 SW 27.3 0.0 20.9
22:50 11.3 11.2 99 989.9 24.4 S 27.3 0.0 20.9
22:53 11.4 11.3 99 989.9 16.8 S 27.3 1.5 21.0
22:55 11.3 11.2 99 989.8 20.6 SE 25.1 1.5 21.0
22:58 11.3 11.2 99 990.0 19.0 SE 25.1 0.0 21.0
23:00 11.3 11.2 99 989.9 23.5 S 24.4 0.0 21.0
23:03 11.3 11.2 99 989.8 21.3 W 23.5 0.0 21.0
23:06 11.3 11.2 99 990.0 13.0 S 23.5 0.0 21.0
23:08 11.3 11.2 99 990.2 19.0 S 23.5 0.0 21.0
23:10 11.2 11.1 99 990.0 20.6 S 23.5 0.0 21.0
23:13 11.3 11.2 99 990.1 18.3 S 22.8 0.0 21.0
23:14 11.3 11.2 99 989.8 21.3 S 21.3 0.0 21.0
23:16 11.3 11.2 99 990.0 27.3 S 27.3 0.0 21.0
23:17 11.3 11.2 99 990.0 22.8 S 27.3 0.0 21.0
23:18 11.3 11.2 99 990.0 21.3 WSW 27.3 0.0 21.0
23:19 11.3 11.2 99 989.8 15.9 S 27.3 0.0 21.0
23:21 11.3 11.2 99 989.9 24.4 S 27.3 0.0 21.0
23:22 11.3 11.2 99 989.8 20.6 SE 27.3 0.0 21.0
23:23 11.3 11.2 99 989.9 24.4 SE 27.3 0.0 21.0
23:24 11.3 11.2 99 990.1 19.0 WSW 27.3 0.0 21.0
23:25 11.3 11.2 99 989.8 23.5 S 27.3 0.0 21.0
23:26 11.3 11.2 99 990.1 19.0 S 24.4 0.0 21.0
23:27 11.3 11.2 99 989.9 14.5 SE 24.4 0.0 21.0
23:29 11.3 11.2 99 989.8 21.3 S 24.4 0.0 21.0
23:30 11.3 11.2 99 989.9 25.1 S 25.1 0.0 21.0
23:31 11.3 11.2 99 990.0 24.4 SE 25.1 0.0 21.0
23:32 11.4 11.3 99 990.0 20.6 SE 25.1 0.0 21.0
23:33 11.3 11.2 99 990.2 23.5 S 25.1 0.0 21.0
23:34 11.4 11.3 99 989.9 15.9 S 25.1 0.0 21.0
23:35 11.4 11.3 99 989.9 22.8 S 25.1 0.0 21.0
23:37 11.4 11.3 99 989.8 18.3 W 25.1 0.0 21.0
23:38 11.4 11.3 99 990.0 19.7 SE 25.1 0.0 21.0
23:40 11.4 11.3 99 989.9 25.9 SE 25.9 0.0 21.0
23:41 11.4 11.3 99 989.8 15.2 N 25.9 0.0 21.0
23:42 11.3 11.2 99 989.8 20.6 S 25.9 0.0 21.0
23:43 11.4 11.3 99 989.8 19.0 WSW 25.9 0.0 21.0
23:44 11.4 11.3 99 989.8 15.2 S 25.9 0.0 21.0
23:45 11.4 11.3 99 990.1 15.9 S 25.9 0.0 21.0
23:46 11.4 11.3 99 990.3 23.5 S 25.9 0.0 21.0
23:47 11.4 11.3 99 989.9 22.1 S 25.9 0.0 21.1
23:49 11.4 11.3 99 990.2 19.0 SE 25.9 1.5 21.2
23:50 11.3 11.2 99 990.1 18.3 S 25.9 1.5 21.2
23:53 11.3 11.2 99 990.0 18.3 W 23.5 0.8 21.2
23:55 11.3 11.2 99 990.1 18.3 S 23.5 0.0 21.2
23:58 11.3 11.2 99 990.1 19.0 SE 21.3 0.0 21.2

UK - WEATHER STATION TOPSITES - UK World Weather Websites

This is a private weather station, never base important decisions or events on data from this weather station. Although every effort has been made to make the data as accurate as possible it does not meet MetOffice standards. It is proved as a guide of local weather conditions. We accept no liability for any loss which may arise from use of the data.

Copyright © Carnkie Weather 2009 - 2018.